Wetterdaten: Samstag, 07.09.2019
Datum Zeit Temp. Aussen Temp. o. S. +5cm Feuchte Auss Luftdruck Regen Sonnenschein Regendauer Solar Windben Empfang
07.09.2019 00:00 16,4 C 15,6 C 15,0 C 66 % 1019,4 hPa 0,0 l/m 0 min 0 min 0 W/m 6,4 km/h (2 Bft) 93,62 %
07.09.2019 00:02 16,4 C 15,0 C 15,0 C 66 % 1019,5 hPa 0,0 l/m 0 min 2 min 0 W/m 9,7 km/h (2 Bft) 94,44 %
07.09.2019 00:04 16,4 C 15,0 C 15,0 C 67 % 1019,5 hPa 0,0 l/m 0 min 2 min 0 W/m 6,4 km/h (2 Bft) 97,87 %
07.09.2019 00:08 16,4 C 15,0 C 14,4 C 68 % 1019,5 hPa 0,0 l/m 0 min 4 min 0 W/m 19,3 km/h (3 Bft) 96,77 %
07.09.2019 00:10 16,4 C 15,0 C 14,4 C 68 % 1019,4 hPa 0,0 l/m 0 min 0 min 0 W/m 6,4 km/h (2 Bft) 97,87 %
07.09.2019 00:12 16,3 C 15,0 C 15,0 C 68 % 1019,5 hPa 0,0 l/m 0 min 0 min 0 W/m 6,4 km/h (2 Bft) 97,87 %
07.09.2019 00:14 16,3 C 14,4 C 15,0 C 69 % 1019,5 hPa 0,0 l/m 0 min 0 min 0 W/m 9,7 km/h (2 Bft) 100,00 %
07.09.2019 00:16 16,3 C 15,0 C 15,0 C 69 % 1019,5 hPa 0,0 l/m 0 min 0 min 0 W/m 9,7 km/h (2 Bft) 97,87 %
07.09.2019 00:18 16,3 C 14,4 C 15,0 C 69 % 1019,5 hPa 0,0 l/m 0 min 2 min 0 W/m 6,4 km/h (2 Bft) 100,00 %
07.09.2019 00:20 16,3 C 14,4 C 14,4 C 70 % 1019,5 hPa 0,0 l/m 0 min 2 min 0 W/m 6,4 km/h (2 Bft) 100,00 %
07.09.2019 00:22 16,2 C 13,9 C 13,9 C 71 % 1019,6 hPa 0,0 l/m 0 min 2 min 0 W/m 6,4 km/h (2 Bft) 97,87 %
07.09.2019 00:24 16,2 C 13,3 C 13,3 C 72 % 1019,6 hPa 0,0 l/m 0 min 2 min 0 W/m 3,2 km/h (1 Bft) 100,00 %
07.09.2019 00:26 16,2 C 13,3 C 13,3 C 73 % 1019,6 hPa 0,0 l/m 0 min 2 min 0 W/m 3,2 km/h (1 Bft) 97,87 %
07.09.2019 00:28 16,2 C 13,3 C 12,8 C 74 % 1019,6 hPa 0,0 l/m 0 min 2 min 0 W/m 0,0 km/h (0 Bft) 100,00 %
07.09.2019 00:30 16,1 C 12,8 C 12,8 C 75 % 1019,6 hPa 0,0 l/m 0 min 2 min 0 W/m 3,2 km/h (1 Bft) 97,83 %
07.09.2019 00:32 16,1 C 12,8 C 12,8 C 75 % 1019,6 hPa 0,0 l/m 0 min 2 min 0 W/m 3,2 km/h (1 Bft) 97,87 %
07.09.2019 00:34 16,0 C 12,2 C 12,2 C 75 % 1019,6 hPa 0,0 l/m 0 min 2 min 0 W/m 3,2 km/h (1 Bft) 100,00 %
07.09.2019 00:36 15,9 C 12,2 C 12,2 C 76 % 1019,6 hPa 0,0 l/m 0 min 2 min 0 W/m 3,2 km/h (1 Bft) 100,00 %
07.09.2019 00:38 15,9 C 12,2 C 12,2 C 76 % 1019,6 hPa 0,0 l/m 0 min 2 min 0 W/m 3,2 km/h (1 Bft) 97,87 %
07.09.2019 00:40 15,8 C 12,2 C 12,2 C 77 % 1019,5 hPa 0,2 l/m 0 min 2 min 0 W/m 3,2 km/h (1 Bft) 100,00 %
07.09.2019 00:42 15,7 C 12,2 C 12,2 C 77 % 1019,6 hPa 0,0 l/m 0 min 2 min 0 W/m 3,2 km/h (1 Bft) 100,00 %
07.09.2019 00:44 15,6 C 12,2 C 12,2 C 77 % 1019,6 hPa 0,0 l/m 0 min 2 min 0 W/m 3,2 km/h (1 Bft) 95,74 %
07.09.2019 00:46 15,6 C 12,2 C 12,2 C 78 % 1019,5 hPa 0,0 l/m 0 min 2 min 0 W/m 0,0 km/h (0 Bft) 100,00 %
07.09.2019 00:48 15,5 C 12,2 C 11,7 C 78 % 1019,6 hPa 0,0 l/m 0 min 2 min 0 W/m 0,0 km/h (0 Bft) 97,87 %
07.09.2019 00:50 15,4 C 12,2 C 12,2 C 79 % 1019,5 hPa 0,0 l/m 0 min 2 min 0 W/m 6,4 km/h (2 Bft) 100,00 %
07.09.2019 00:52 15,3 C 12,2 C 11,7 C 79 % 1019,5 hPa 0,0 l/m 0 min 2 min 0 W/m 3,2 km/h (1 Bft) 97,87 %
07.09.2019 00:54 15,3 C 12,2 C 12,2 C 79 % 1019,4 hPa 0,0 l/m 0 min 2 min 0 W/m 6,4 km/h (2 Bft) 100,00 %
07.09.2019 00:56 15,2 C 12,2 C 11,7 C 80 % 1019,4 hPa 0,0 l/m 0 min 2 min 0 W/m 6,4 km/h (2 Bft) 95,74 %
07.09.2019 00:58 15,1 C 11,7 C 11,7 C 80 % 1019,6 hPa 0,0 l/m 0 min 2 min 0 W/m 9,7 km/h (2 Bft) 100,00 %
07.09.2019 01:00 15,0 C 11,7 C 11,7 C 81 % 1019,5 hPa 0,0 l/m 0 min 2 min 0 W/m 0,0 km/h (0 Bft) 100,00 %
07.09.2019 01:02 14,9 C 11,7 C 11,7 C 81 % 1019,5 hPa 0,2 l/m 0 min 2 min 0 W/m 9,7 km/h (2 Bft) 100,00 %
07.09.2019 01:04 14,9 C 11,7 C 11,7 C 81 % 1019,5 hPa 0,0 l/m 0 min 2 min 0 W/m 6,4 km/h (2 Bft) 100,00 %
07.09.2019 01:06 14,8 C 11,7 C 11,7 C 81 % 1019,4 hPa 0,0 l/m 0 min 2 min 0 W/m 3,2 km/h (1 Bft) 100,00 %
07.09.2019 01:08 14,8 C 11,7 C 11,7 C 82 % 1019,4 hPa 0,0 l/m 0 min 2 min 0 W/m 0,0 km/h (0 Bft) 100,00 %
07.09.2019 01:10 14,8 C 11,7 C 11,7 C 82 % 1019,3 hPa 0,0 l/m 0 min 2 min 0 W/m 3,2 km/h (1 Bft) 100,00 %
07.09.2019 01:12 14,7 C 11,7 C 11,7 C 82 % 1019,3 hPa 0,0 l/m 0 min 2 min 0 W/m 6,4 km/h (2 Bft) 100,00 %
07.09.2019 01:14 14,7 C 11,7 C 11,7 C 82 % 1019,4 hPa 0,0 l/m 0 min 2 min 0 W/m 0,0 km/h (0 Bft) 97,87 %
07.09.2019 01:16 14,7 C 11,7 C 11,7 C 83 % 1019,4 hPa 0,0 l/m 0 min 2 min 0 W/m 3,2 km/h (1 Bft) 100,00 %
07.09.2019 01:18 14,6 C 11,7 C 11,7 C 83 % 1019,4 hPa 0,0 l/m 0 min 2 min 0 W/m 0,0 km/h (0 Bft) 100,00 %
07.09.2019 01:20 14,6 C 11,7 C 11,7 C 83 % 1019,4 hPa 0,0 l/m 0 min 2 min 0 W/m 0,0 km/h (0 Bft) 100,00 %
07.09.2019 01:22 14,5 C 12,2 C 11,7 C 83 % 1019,3 hPa 0,0 l/m 0 min 2 min 0 W/m 6,4 km/h (2 Bft) 100,00 %
07.09.2019 01:24 14,5 C 12,2 C 11,7 C 83 % 1019,3 hPa 0,0 l/m 0 min 0 min 0 W/m 0,0 km/h (0 Bft) 100,00 %
07.09.2019 01:26 14,4 C 12,2 C 11,7 C 83 % 1019,2 hPa 0,0 l/m 0 min 0 min 0 W/m 3,2 km/h (1 Bft) 95,74 %
07.09.2019 01:28 14,4 C 12,2 C 12,2 C 84 % 1019,2 hPa 0,0 l/m 0 min 0 min 0 W/m 6,4 km/h (2 Bft) 100,00 %
07.09.2019 01:30 14,4 C 12,2 C 11,7 C 84 % 1019,2 hPa 0,0 l/m 0 min 0 min 0 W/m 6,4 km/h (2 Bft) 100,00 %
07.09.2019 01:32 14,3 C 12,2 C 11,7 C 84 % 1019,2 hPa 0,0 l/m 0 min 0 min 0 W/m 3,2 km/h (1 Bft) 97,87 %
07.09.2019 01:34 14,3 C 12,2 C 12,2 C 84 % 1019,3 hPa 0,0 l/m 0 min 0 min 0 W/m 3,2 km/h (1 Bft) 100,00 %
07.09.2019 01:36 14,3 C 12,2 C 11,7 C 84 % 1019,1 hPa 0,0 l/m 0 min 0 min 0 W/m 3,2 km/h (1 Bft) 100,00 %
07.09.2019 01:38 14,3 C 12,2 C 12,2 C 84 % 1019,2 hPa 0,0 l/m 0 min 0 min 0 W/m 3,2 km/h (1 Bft) 97,87 %
07.09.2019 01:40 14,2 C 12,2 C 12,2 C 84 % 1019,2 hPa 0,0 l/m 0 min 0 min 0 W/m 3,2 km/h (1 Bft) 97,83 %
07.09.2019 01:42 14,2 C 12,2 C 12,2 C 84 % 1019,2 hPa 0,0 l/m 0 min 0 min 0 W/m 3,2 km/h (1 Bft) 100,00 %
07.09.2019 01:44 14,2 C 12,2 C 12,2 C 84 % 1019,1 hPa 0,0 l/m 0 min 0 min 0 W/m 3,2 km/h (1 Bft) 97,87 %
07.09.2019 01:46 14,2 C 12,8 C 12,2 C 85 % 1019,1 hPa 0,0 l/m 0 min 0 min 0 W/m 6,4 km/h (2 Bft) 97,87 %
07.09.2019 01:48 14,2 C 12,8 C 12,2 C 85 % 1019,2 hPa 0,0 l/m 0 min 0 min 0 W/m 9,7 km/h (2 Bft) 97,87 %
07.09.2019 01:50 14,2 C 12,8 C 12,2 C 85 % 1019,1 hPa 0,0 l/m 0 min 0 min 0 W/m 3,2 km/h (1 Bft) 100,00 %
07.09.2019 01:52 14,2 C 12,8 C 12,2 C 85 % 1019,1 hPa 0,0 l/m 0 min 0 min 0 W/m 3,2 km/h (1 Bft) 97,83 %
07.09.2019 01:54 14,2 C 12,8 C 12,2 C 85 % 1019,1 hPa 0,0 l/m 0 min 0 min 0 W/m 3,2 km/h (1 Bft) 97,87 %
07.09.2019 01:56 14,2 C 12,8 C 12,2 C 85 % 1019,1 hPa 0,0 l/m 0 min 0 min 0 W/m 3,2 km/h (1 Bft) 97,87 %
07.09.2019 01:58 14,2 C 12,8 C 12,2 C 85 % 1019,1 hPa 0,0 l/m 0 min 0 min 0 W/m 6,4 km/h (2 Bft) 95,74 %
07.09.2019 02:00 14,2 C 12,8 C 12,2 C 85 % 1019,0 hPa 0,0 l/m 0 min 0 min 0 W/m 3,2 km/h (1 Bft) 97,87 %
07.09.2019 02:02 14,2 C 12,8 C 12,2 C 85 % 1019,1 hPa 0,0 l/m 0 min 0 min 0 W/m 9,7 km/h (2 Bft) 95,74 %
07.09.2019 02:04 14,2 C 12,8 C 12,2 C 85 % 1019,1 hPa 0,0 l/m 0 min 0 min 0 W/m 3,2 km/h (1 Bft) 93,48 %
07.09.2019 02:06 14,2 C 12,8 C 12,2 C 85 % 1019,0 hPa 0,0 l/m 0 min 0 min 0 W/m 0,0 km/h (0 Bft) 95,74 %
07.09.2019 02:08 14,2 C 12,8 C 12,2 C 85 % 1019,0 hPa 0,0 l/m 0 min 0 min 0 W/m 0,0 km/h (0 Bft) 91,49 %
07.09.2019 02:10 14,2 C 12,8 C 12,2 C 85 % 1019,0 hPa 0,0 l/m 0 min 0 min 0 W/m 6,4 km/h (2 Bft) 93,62 %
07.09.2019 02:12 14,2 C 13,3 C 12,2 C 85 % 1019,0 hPa 0,0 l/m 0 min 0 min 0 W/m 12,9 km/h (3 Bft) 93,62 %
07.09.2019 02:14 14,2 C 13,3 C 12,2 C 85 % 1019,0 hPa 0,0 l/m 0 min 0 min 0 W/m 6,4 km/h (2 Bft) 93,62 %
07.09.2019 02:16 14,2 C 13,3 C 12,2 C 85 % 1019,0 hPa 0,0 l/m 0 min 0 min 0 W/m 0,0 km/h (0 Bft) 95,65 %
07.09.2019 02:18 14,2 C 13,3 C 12,8 C 85 % 1018,9 hPa 0,0 l/m 0 min 0 min 0 W/m 0,0 km/h (0 Bft) 95,74 %
07.09.2019 02:20 14,2 C 13,3 C 12,2 C 85 % 1019,0 hPa 0,0 l/m 0 min 0 min 0 W/m 0,0 km/h (0 Bft) 95,74 %
07.09.2019 02:22 14,2 C 13,3 C 12,2 C 85 % 1019,0 hPa 0,0 l/m 0 min 0 min 0 W/m 0,0 km/h (0 Bft) 95,74 %
07.09.2019 02:24 14,2 C 13,3 C 12,2 C 85 % 1019,0 hPa 0,0 l/m 0 min 0 min 0 W/m 0,0 km/h (0 Bft) 93,62 %
07.09.2019 02:26 14,2 C 13,3 C 12,2 C 85 % 1018,9 hPa 0,0 l/m 0 min 0 min 0 W/m 0,0 km/h (0 Bft) 95,65 %
07.09.2019 02:28 14,2 C 13,3 C 12,8 C 85 % 1019,0 hPa 0,0 l/m 0 min 0 min 0 W/m 0,0 km/h (0 Bft) 95,74 %
07.09.2019 02:30 14,2 C 13,3 C 12,8 C 85 % 1018,9 hPa 0,0 l/m 0 min 0 min 0 W/m 0,0 km/h (0 Bft) 95,74 %
07.09.2019 02:32 14,2 C 13,3 C 12,8 C 86 % 1019,0 hPa 0,0 l/m 0 min 0 min 0 W/m 3,2 km/h (1 Bft) 95,74 %
07.09.2019 02:34 14,2 C 13,3 C 12,8 C 86 % 1018,9 hPa 0,0 l/m 0 min 0 min 0 W/m 0,0 km/h (0 Bft) 97,87 %
07.09.2019 02:36 14,2 C 13,3 C 12,2 C 86 % 1018,9 hPa 0,0 l/m 0 min 0 min 0 W/m 0,0 km/h (0 Bft) 97,87 %
07.09.2019 02:38 14,2 C 13,3 C 12,2 C 86 % 1018,9 hPa 0,0 l/m 0 min 0 min 0 W/m 0,0 km/h (0 Bft) 97,87 %
07.09.2019 02:40 14,2 C 13,3 C 12,2 C 86 % 1019,0 hPa 0,0 l/m 0 min 0 min 0 W/m 0,0 km/h (0 Bft) 97,83 %
07.09.2019 02:42 14,2 C 13,3 C 12,8 C 86 % 1019,0 hPa 0,0 l/m 0 min 0 min 0 W/m 0,0 km/h (0 Bft) 93,62 %
07.09.2019 02:44 14,2 C 13,3 C 12,8 C 86 % 1019,1 hPa 0,0 l/m 0 min 0 min 0 W/m 0,0 km/h (0 Bft) 97,87 %
07.09.2019 02:46 14,2 C 13,3 C 12,8 C 86 % 1019,0 hPa 0,0 l/m 0 min 0 min 0 W/m 0,0 km/h (0 Bft) 97,87 %
07.09.2019 02:48 14,2 C 13,3 C 12,8 C 86 % 1019,0 hPa 0,0 l/m 0 min 0 min 0 W/m 0,0 km/h (0 Bft) 97,87 %
07.09.2019 02:50 14,2 C 13,3 C 12,8 C 86 % 1019,0 hPa 0,0 l/m 0 min 0 min 0 W/m 0,0 km/h (0 Bft) 97,83 %
07.09.2019 02:52 14,2 C 13,3 C 12,8 C 86 % 1019,0 hPa 0,0 l/m 0 min 0 min 0 W/m 0,0 km/h (0 Bft) 97,87 %
07.09.2019 02:54 14,2 C 13,3 C 13,3 C 86 % 1018,9 hPa 0,0 l/m 0 min 0 min 0 W/m 6,4 km/h (2 Bft) 100,00 %
07.09.2019 02:56 14,2 C 13,3 C 13,3 C 86 % 1018,9 hPa 0,0 l/m 0 min 0 min 0 W/m 12,9 km/h (3 Bft) 100,00 %
07.09.2019 02:58 14,2 C 13,9 C 13,3 C 86 % 1018,9 hPa 0,0 l/m 0 min 0 min 0 W/m 3,2 km/h (1 Bft) 100,00 %
07.09.2019 03:00 14,2 C 13,9 C 13,3 C 85 % 1018,9 hPa 0,0 l/m 0 min 0 min 0 W/m 6,4 km/h (2 Bft) 100,00 %
07.09.2019 03:02 14,2 C 13,9 C 13,3 C 85 % 1018,9 hPa 0,0 l/m 0 min 0 min 0 W/m 12,9 km/h (3 Bft) 100,00 %
07.09.2019 03:04 14,2 C 13,9 C 13,3 C 85 % 1018,8 hPa 0,0 l/m 0 min 0 min 0 W/m 12,9 km/h (3 Bft) 100,00 %
07.09.2019 03:06 14,2 C 13,9 C 13,3 C 84 % 1018,8 hPa 0,0 l/m 0 min 0 min 0 W/m 9,7 km/h (2 Bft) 100,00 %
07.09.2019 03:08 14,2 C 13,9 C 13,3 C 84 % 1018,8 hPa 0,0 l/m 0 min 0 min 0 W/m 3,2 km/h (1 Bft) 97,87 %
07.09.2019 03:10 14,2 C 13,9 C 13,3 C 84 % 1018,8 hPa 0,0 l/m 0 min 0 min 0 W/m 6,4 km/h (2 Bft) 100,00 %
07.09.2019 03:12 14,2 C 13,9 C 13,3 C 84 % 1018,8 hPa 0,0 l/m 0 min 0 min 0 W/m 3,2 km/h (1 Bft) 100,00 %
07.09.2019 03:14 14,2 C 13,9 C 13,3 C 84 % 1018,8 hPa 0,0 l/m 0 min 0 min 0 W/m 12,9 km/h (3 Bft) 100,00 %
07.09.2019 03:16 14,2 C 13,9 C 13,3 C 84 % 1018,8 hPa 0,0 l/m 0 min 0 min 0 W/m 6,4 km/h (2 Bft) 97,87 %
07.09.2019 03:18 14,3 C 13,9 C 13,3 C 84 % 1018,8 hPa 0,0 l/m 0 min 0 min 0 W/m 9,7 km/h (2 Bft) 100,00 %
07.09.2019 03:20 14,3 C 13,3 C 12,8 C 84 % 1018,8 hPa 0,0 l/m 0 min 2 min 0 W/m 9,7 km/h (2 Bft) 100,00 %
07.09.2019 03:22 14,3 C 12,8 C 12,8 C 84 % 1018,8 hPa 0,0 l/m 0 min 2 min 0 W/m 9,7 km/h (2 Bft) 100,00 %
07.09.2019 03:24 14,3 C 12,8 C 12,8 C 85 % 1018,8 hPa 0,0 l/m 0 min 2 min 0 W/m 16,1 km/h (3 Bft) 95,74 %
07.09.2019 03:26 14,4 C 12,8 C 12,8 C 85 % 1018,8 hPa 0,0 l/m 0 min 2 min 0 W/m 6,4 km/h (2 Bft) 97,83 %
07.09.2019 03:28 14,4 C 12,8 C 12,8 C 85 % 1018,8 hPa 0,0 l/m 0 min 0 min 0 W/m 6,4 km/h (2 Bft) 97,87 %
07.09.2019 03:30 14,4 C 13,3 C 12,8 C 85 % 1018,8 hPa 0,0 l/m 0 min 0 min 0 W/m 16,1 km/h (3 Bft) 97,87 %
07.09.2019 03:32 14,4 C 13,3 C 13,3 C 85 % 1018,8 hPa 0,0 l/m 0 min 0 min 0 W/m 12,9 km/h (3 Bft) 95,74 %
07.09.2019 03:34 14,3 C 13,3 C 13,3 C 85 % 1018,7 hPa 0,0 l/m 0 min 0 min 0 W/m 16,1 km/h (3 Bft) 97,87 %
07.09.2019 03:36 14,3 C 13,3 C 13,3 C 85 % 1018,7 hPa 0,0 l/m 0 min 0 min 0 W/m 16,1 km/h (3 Bft) 97,87 %
07.09.2019 03:38 14,3 C 13,3 C 13,3 C 85 % 1018,7 hPa 0,0 l/m 0 min 0 min 0 W/m 6,4 km/h (2 Bft) 97,83 %
07.09.2019 03:40 14,3 C 13,3 C 13,3 C 85 % 1018,7 hPa 0,0 l/m 0 min 0 min 0 W/m 12,9 km/h (3 Bft) 93,62 %
07.09.2019 03:42 14,3 C 13,3 C 13,3 C 85 % 1018,7 hPa 0,0 l/m 0 min 0 min 0 W/m 16,1 km/h (3 Bft) 97,87 %
07.09.2019 03:44 14,3 C 13,3 C 13,3 C 85 % 1018,8 hPa 0,0 l/m 0 min 0 min 0 W/m 9,7 km/h (2 Bft) 97,87 %
07.09.2019 03:46 14,3 C 13,3 C 13,3 C 85 % 1018,7 hPa 0,0 l/m 0 min 0 min 0 W/m 19,3 km/h (3 Bft) 95,74 %
07.09.2019 03:48 14,3 C 13,3 C 13,3 C 85 % 1018,7 hPa 0,0 l/m 0 min 0 min 0 W/m 12,9 km/h (3 Bft) 97,83 %
07.09.2019 03:50 14,3 C 13,3 C 13,3 C 85 % 1018,7 hPa 0,0 l/m 0 min 0 min 0 W/m 12,9 km/h (3 Bft) 97,87 %
07.09.2019 03:52 14,3 C 13,3 C 13,3 C 85 % 1018,7 hPa 0,0 l/m 0 min 0 min 0 W/m 9,7 km/h (2 Bft) 97,87 %
07.09.2019 03:54 14,3 C 13,3 C 13,3 C 85 % 1018,7 hPa 0,0 l/m 0 min 0 min 0 W/m 12,9 km/h (3 Bft) 97,87 %
07.09.2019 03:56 14,3 C 13,3 C 13,3 C 85 % 1018,7 hPa 0,0 l/m 0 min 0 min 0 W/m 6,4 km/h (2 Bft) 95,74 %
07.09.2019 03:58 14,2 C 13,3 C 13,3 C 85 % 1018,7 hPa 0,0 l/m 0 min 0 min 0 W/m 6,4 km/h (2 Bft) 97,87 %
07.09.2019 04:00 14,2 C 13,3 C 13,3 C 85 % 1018,6 hPa 0,0 l/m 0 min 0 min 0 W/m 9,7 km/h (2 Bft) 97,83 %
07.09.2019 04:02 14,2 C 13,3 C 13,3 C 85 % 1018,7 hPa 0,0 l/m 0 min 0 min 0 W/m 25,7 km/h (4 Bft) 92,86 %
07.09.2019 04:04 14,2 C 13,3 C 12,8 C 85 % 1018,7 hPa 0,0 l/m 0 min 0 min 0 W/m 9,7 km/h (2 Bft) 95,74 %
07.09.2019 04:06 14,2 C 13,3 C 12,8 C 86 % 1018,6 hPa 0,0 l/m 0 min 0 min 0 W/m 9,7 km/h (2 Bft) 95,74 %
07.09.2019 04:08 14,2 C 13,3 C 12,8 C 86 % 1018,7 hPa 0,0 l/m 0 min 0 min 0 W/m 16,1 km/h (3 Bft) 95,74 %
07.09.2019 04:10 14,2 C 13,3 C 12,8 C 86 % 1018,6 hPa 0,0 l/m 0 min 0 min 0 W/m 16,1 km/h (3 Bft) 97,87 %
07.09.2019 04:12 14,2 C 13,3 C 12,8 C 86 % 1018,7 hPa 0,0 l/m 0 min 0 min 0 W/m 9,7 km/h (2 Bft) 95,65 %
07.09.2019 04:14 14,2 C 13,3 C 12,8 C 86 % 1018,7 hPa 0,0 l/m 0 min 0 min 0 W/m 12,9 km/h (3 Bft) 93,62 %
07.09.2019 04:16 14,2 C 13,3 C 12,8 C 86 % 1018,6 hPa 0,0 l/m 0 min 0 min 0 W/m 9,7 km/h (2 Bft) 95,74 %
07.09.2019 04:18 14,2 C 13,3 C 12,8 C 86 % 1018,6 hPa 0,0 l/m 0 min 0 min 0 W/m 9,7 km/h (2 Bft) 95,74 %
07.09.2019 04:20 14,2 C 13,3 C 12,8 C 86 % 1018,6 hPa 0,0 l/m 0 min 0 min 0 W/m 6,4 km/h (2 Bft) 97,87 %
07.09.2019 04:22 14,2 C 13,3 C 12,8 C 86 % 1018,6 hPa 0,0 l/m 0 min 0 min 0 W/m 0,0 km/h (0 Bft) 95,74 %
07.09.2019 04:24 14,2 C 13,3 C 13,3 C 86 % 1018,6 hPa 0,0 l/m 0 min 0 min 0 W/m 9,7 km/h (2 Bft) 95,65 %
07.09.2019 04:26 14,2 C 13,3 C 13,3 C 87 % 1018,6 hPa 0,0 l/m 0 min 0 min 0 W/m 9,7 km/h (2 Bft) 95,74 %
07.09.2019 04:28 14,2 C 13,3 C 12,8 C 87 % 1018,6 hPa 0,0 l/m 0 min 0 min 0 W/m 9,7 km/h (2 Bft) 95,74 %
07.09.2019 04:30 14,2 C 13,3 C 12,8 C 87 % 1018,6 hPa 0,0 l/m 0 min 0 min 0 W/m 3,2 km/h (1 Bft) 93,62 %
07.09.2019 04:32 14,2 C 13,3 C 12,8 C 87 % 1018,6 hPa 0,0 l/m 0 min 0 min 0 W/m 9,7 km/h (2 Bft) 97,87 %
07.09.2019 04:34 14,2 C 13,3 C 12,8 C 87 % 1018,6 hPa 0,0 l/m 0 min 0 min 0 W/m 12,9 km/h (3 Bft) 93,62 %
07.09.2019 04:36 14,2 C 13,3 C 12,8 C 87 % 1018,5 hPa 0,0 l/m 0 min 0 min 0 W/m 9,7 km/h (2 Bft) 97,83 %
07.09.2019 04:38 14,2 C 13,3 C 12,8 C 87 % 1018,5 hPa 0,0 l/m 0 min 0 min 0 W/m 9,7 km/h (2 Bft) 97,87 %
07.09.2019 04:40 14,2 C 13,3 C 12,8 C 87 % 1018,5 hPa 0,0 l/m 0 min 0 min 0 W/m 6,4 km/h (2 Bft) 97,96 %
07.09.2019 04:42 14,2 C 13,3 C 12,8 C 87 % 1018,4 hPa 0,0 l/m 0 min 0 min 0 W/m 12,9 km/h (3 Bft) 97,87 %
07.09.2019 04:44 14,2 C 13,3 C 12,8 C 87 % 1018,4 hPa 0,0 l/m 0 min 0 min 0 W/m 12,9 km/h (3 Bft) 93,62 %
07.09.2019 04:46 14,2 C 13,3 C 12,8 C 87 % 1018,5 hPa 0,0 l/m 0 min 0 min 0 W/m 16,1 km/h (3 Bft) 97,87 %
07.09.2019 04:48 14,2 C 13,3 C 12,8 C 87 % 1018,5 hPa 0,0 l/m 0 min 2 min 0 W/m 9,7 km/h (2 Bft) 97,87 %
07.09.2019 04:50 14,2 C 13,3 C 12,8 C 87 % 1018,4 hPa 0,0 l/m 0 min 0 min 0 W/m 9,7 km/h (2 Bft) 97,83 %
07.09.2019 04:52 14,2 C 13,3 C 12,8 C 87 % 1018,4 hPa 0,0 l/m 0 min 0 min 0 W/m 12,9 km/h (3 Bft) 97,87 %
07.09.2019 04:54 14,2 C 13,3 C 12,8 C 88 % 1018,4 hPa 0,0 l/m 0 min 0 min 0 W/m 16,1 km/h (3 Bft) 95,74 %
07.09.2019 04:56 14,1 C 13,3 C 12,8 C 88 % 1018,4 hPa 0,0 l/m 0 min 0 min 0 W/m 9,7 km/h (2 Bft) 93,62 %
07.09.2019 04:58 14,1 C 13,3 C 12,8 C 88 % 1018,4 hPa 0,0 l/m 0 min 0 min 0 W/m 9,7 km/h (2 Bft) 93,62 %
07.09.2019 05:00 14,1 C 13,3 C 12,8 C 88 % 1018,4 hPa 0,0 l/m 0 min 0 min 0 W/m 6,4 km/h (2 Bft) 93,62 %
07.09.2019 05:02 14,1 C 13,3 C 12,8 C 88 % 1018,4 hPa 0,0 l/m 0 min 0 min 0 W/m 9,7 km/h (2 Bft) 95,65 %
07.09.2019 05:04 14,1 C 13,3 C 12,8 C 88 % 1018,3 hPa 0,0 l/m 0 min 0 min 0 W/m 9,7 km/h (2 Bft) 95,74 %
07.09.2019 05:06 14,1 C 12,8 C 12,8 C 88 % 1018,3 hPa 0,0 l/m 0 min 0 min 0 W/m 6,4 km/h (2 Bft) 95,74 %
07.09.2019 05:08 14,1 C 12,2 C 12,2 C 88 % 1018,4 hPa 0,0 l/m 0 min 2 min 0 W/m 6,4 km/h (2 Bft) 93,62 %
07.09.2019 05:10 14,1 C 12,2 C 11,7 C 89 % 1018,3 hPa 0,2 l/m 0 min 2 min 0 W/m 6,4 km/h (2 Bft) 95,74 %
07.09.2019 05:12 14,1 C 12,2 C 11,7 C 89 % 1018,3 hPa 0,0 l/m 0 min 2 min 0 W/m 3,2 km/h (1 Bft) 95,74 %
07.09.2019 05:14 14,1 C 12,2 C 11,7 C 89 % 1018,2 hPa 0,0 l/m 0 min 2 min 0 W/m 0,0 km/h (0 Bft) 93,48 %
07.09.2019 05:16 14,1 C 12,2 C 11,7 C 89 % 1018,3 hPa 0,0 l/m 0 min 2 min 0 W/m 0,0 km/h (0 Bft) 95,74 %
07.09.2019 05:18 14,1 C 12,2 C 11,7 C 89 % 1018,2 hPa 0,0 l/m 0 min 0 min 0 W/m 6,4 km/h (2 Bft) 95,74 %
07.09.2019 05:20 14,0 C 11,7 C 11,7 C 89 % 1018,3 hPa 0,0 l/m 0 min 0 min 0 W/m 6,4 km/h (2 Bft) 97,87 %
07.09.2019 05:22 14,0 C 11,7 C 11,7 C 89 % 1018,2 hPa 0,0 l/m 0 min 0 min 0 W/m 0,0 km/h (0 Bft) 97,87 %
07.09.2019 05:24 14,0 C 12,2 C 11,7 C 89 % 1018,2 hPa 0,0 l/m 0 min 0 min 0 W/m 0,0 km/h (0 Bft) 97,87 %
07.09.2019 05:26 14,0 C 12,2 C 11,7 C 90 % 1018,2 hPa 0,0 l/m 0 min 0 min 0 W/m 3,2 km/h (1 Bft) 95,65 %
07.09.2019 05:28 14,0 C 12,2 C 11,7 C 90 % 1018,2 hPa 0,0 l/m 0 min 0 min 0 W/m 3,2 km/h (1 Bft) 97,87 %
07.09.2019 05:30 13,9 C 12,2 C 12,2 C 90 % 1018,2 hPa 0,0 l/m 0 min 0 min 0 W/m 0,0 km/h (0 Bft) 97,87 %
07.09.2019 05:32 13,9 C 12,2 C 12,2 C 90 % 1018,2 hPa 0,0 l/m 0 min 0 min 0 W/m 0,0 km/h (0 Bft) 97,87 %
07.09.2019 05:34 13,9 C 12,2 C 11,7 C 90 % 1018,1 hPa 0,0 l/m 0 min 0 min 0 W/m 3,2 km/h (1 Bft) 95,74 %
07.09.2019 05:36 13,9 C 12,2 C 11,7 C 90 % 1018,2 hPa 0,0 l/m 0 min 0 min 0 W/m 0,0 km/h (0 Bft) 97,83 %
07.09.2019 05:38 13,9 C 12,2 C 11,7 C 91 % 1018,2 hPa 0,0 l/m 0 min 0 min 0 W/m 3,2 km/h (1 Bft) 97,87 %
07.09.2019 05:40 13,9 C 12,2 C 12,2 C 91 % 1018,2 hPa 0,0 l/m 0 min 0 min 0 W/m 0,0 km/h (0 Bft) 97,87 %
07.09.2019 05:42 13,8 C 12,2 C 11,7 C 91 % 1018,1 hPa 0,0 l/m 0 min 0 min 0 W/m 3,2 km/h (1 Bft) 97,87 %
07.09.2019 05:44 13,8 C 12,2 C 11,7 C 91 % 1018,1 hPa 0,0 l/m 0 min 0 min 0 W/m 12,9 km/h (3 Bft) 97,87 %
07.09.2019 05:46 13,8 C 12,2 C 11,7 C 91 % 1018,0 hPa 0,0 l/m 0 min 0 min 0 W/m 0,0 km/h (0 Bft) 97,87 %
07.09.2019 05:48 13,8 C 12,2 C 11,7 C 91 % 1018,0 hPa 0,0 l/m 0 min 2 min 0 W/m 9,7 km/h (2 Bft) 100,00 %
07.09.2019 05:50 13,8 C 12,2 C 11,7 C 91 % 1018,0 hPa 0,0 l/m 0 min 0 min 0 W/m 6,4 km/h (2 Bft) 100,00 %
07.09.2019 05:52 13,8 C 12,2 C 11,7 C 91 % 1018,0 hPa 0,0 l/m 0 min 0 min 0 W/m 0,0 km/h (0 Bft) 97,87 %
07.09.2019 05:54 13,8 C 12,2 C 11,7 C 91 % 1018,0 hPa 0,0 l/m 0 min 0 min 0 W/m 0,0 km/h (0 Bft) 97,87 %
07.09.2019 05:56 13,8 C 12,2 C 11,7 C 92 % 1018,0 hPa 0,0 l/m 0 min 0 min 0 W/m 0,0 km/h (0 Bft) 97,87 %
07.09.2019 05:58 13,7 C 12,2 C 11,7 C 92 % 1018,0 hPa 0,0 l/m 0 min 0 min 0 W/m 6,4 km/h (2 Bft) 100,00 %
07.09.2019 06:00 13,7 C 12,2 C 11,7 C 92 % 1018,0 hPa 0,0 l/m 0 min 0 min 0 W/m 3,2 km/h (1 Bft) 100,00 %
07.09.2019 06:02 13,7 C 12,2 C 11,7 C 92 % 1018,0 hPa 0,0 l/m 0 min 0 min 0 W/m 6,4 km/h (2 Bft) 97,87 %
07.09.2019 06:04 13,7 C 12,2 C 11,7 C 92 % 1018,0 hPa 0,0 l/m 0 min 0 min 0 W/m 9,7 km/h (2 Bft) 97,87 %
07.09.2019 06:08 13,7 C 12,2 C 11,7 C 92 % 1018,0 hPa 0,0 l/m 0 min 0 min 0 W/m 3,2 km/h (1 Bft) 100,00 %
07.09.2019 06:10 13,7 C 12,2 C 11,7 C 92 % 1017,9 hPa 0,0 l/m 0 min 0 min 0 W/m 6,4 km/h (2 Bft) 100,00 %
07.09.2019 06:12 13,7 C 12,2 C 11,7 C 92 % 1017,9 hPa 0,0 l/m 0 min 0 min 0 W/m 3,2 km/h (1 Bft) 100,00 %
07.09.2019 06:14 13,7 C 12,2 C 11,7 C 92 % 1018,0 hPa 0,0 l/m 0 min 0 min 0 W/m 3,2 km/h (1 Bft) 97,87 %
07.09.2019 06:16 13,7 C 12,2 C 11,7 C 92 % 1018,0 hPa 0,0 l/m 0 min 0 min 0 W/m 6,4 km/h (2 Bft) 97,87 %
07.09.2019 06:18 13,6 C 12,2 C 11,7 C 92 % 1018,0 hPa 0,0 l/m 0 min 0 min 0 W/m 0,0 km/h (0 Bft) 100,00 %
07.09.2019 06:20 13,6 C 12,2 C 11,7 C 92 % 1018,0 hPa 0,0 l/m 0 min 0 min 0 W/m 3,2 km/h (1 Bft) 100,00 %
07.09.2019 06:22 13,6 C 12,2 C 11,7 C 92 % 1018,0 hPa 0,0 l/m 0 min 0 min 0 W/m 3,2 km/h (1 Bft) 100,00 %
07.09.2019 06:24 13,6 C 12,2 C 12,2 C 93 % 1018,0 hPa 0,0 l/m 0 min 0 min 0 W/m 0,0 km/h (0 Bft) 100,00 %
07.09.2019 06:26 13,6 C 12,2 C 11,7 C 93 % 1018,0 hPa 0,0 l/m 0 min 0 min 0 W/m 3,2 km/h (1 Bft) 100,00 %
07.09.2019 06:28 13,6 C 12,2 C 12,2 C 93 % 1018,0 hPa 0,0 l/m 0 min 0 min 0 W/m 3,2 km/h (1 Bft) 100,00 %
07.09.2019 06:30 13,6 C 12,2 C 12,2 C 93 % 1018,0 hPa 0,0 l/m 0 min 0 min 0 W/m 6,4 km/h (2 Bft) 100,00 %
07.09.2019 06:32 13,6 C 12,2 C 12,2 C 93 % 1018,0 hPa 0,0 l/m 0 min 0 min 0 W/m 6,4 km/h (2 Bft) 100,00 %
07.09.2019 06:34 13,6 C 12,2 C 12,2 C 93 % 1018,0 hPa 0,0 l/m 0 min 0 min 0 W/m 9,7 km/h (2 Bft) 100,00 %
07.09.2019 06:36 13,6 C 12,2 C 12,2 C 93 % 1018,0 hPa 0,0 l/m 0 min 0 min 0 W/m 0,0 km/h (0 Bft) 100,00 %
07.09.2019 06:38 13,6 C 12,2 C 12,2 C 93 % 1018,0 hPa 0,0 l/m 0 min 0 min 0 W/m 0,0 km/h (0 Bft) 100,00 %
07.09.2019 06:40 13,6 C 12,2 C 12,2 C 93 % 1018,0 hPa 0,0 l/m 0 min 0 min 0 W/m 0,0 km/h (0 Bft) 100,00 %
07.09.2019 06:42 13,6 C 12,2 C 11,7 C 93 % 1018,0 hPa 0,0 l/m 0 min 0 min 0 W/m 0,0 km/h (0 Bft) 100,00 %
07.09.2019 06:44 13,5 C 12,2 C 11,7 C 93 % 1018,0 hPa 0,0 l/m 0 min 0 min 0 W/m 3,2 km/h (1 Bft) 100,00 %
07.09.2019 06:46 13,5 C 12,2 C 11,7 C 93 % 1018,0 hPa 0,0 l/m 0 min 0 min 0 W/m 3,2 km/h (1 Bft) 95,65 %
07.09.2019 06:48 13,5 C 12,2 C 11,7 C 93 % 1018,0 hPa 0,0 l/m 0 min 0 min 0 W/m 0,0 km/h (0 Bft) 100,00 %
07.09.2019 06:50 13,5 C 12,2 C 11,7 C 93 % 1018,0 hPa 0,0 l/m 0 min 0 min 0 W/m 0,0 km/h (0 Bft) 100,00 %
07.09.2019 06:52 13,4 C 12,2 C 11,7 C 93 % 1018,0 hPa 0,0 l/m 0 min 0 min 0 W/m 3,2 km/h (1 Bft) 97,87 %
07.09.2019 06:54 13,4 C 12,2 C 11,7 C 93 % 1018,0 hPa 0,0 l/m 0 min 0 min 0 W/m 0,0 km/h (0 Bft) 100,00 %
07.09.2019 06:56 13,4 C 12,2 C 11,7 C 93 % 1018,0 hPa 0,0 l/m 0 min 0 min 0 W/m 3,2 km/h (1 Bft) 100,00 %
07.09.2019 06:58 13,4 C 12,2 C 11,7 C 93 % 1018,1 hPa 0,0 l/m 0 min 0 min 0 W/m 3,2 km/h (1 Bft) 100,00 %
07.09.2019 07:00 13,4 C 12,2 C 11,7 C 93 % 1018,1 hPa 0,0 l/m 0 min 0 min 0 W/m 0,0 km/h (0 Bft) 97,87 %
07.09.2019 07:02 13,4 C 12,2 C 11,7 C 93 % 1018,1 hPa 0,0 l/m 0 min 0 min 0 W/m 3,2 km/h (1 Bft) 100,00 %
07.09.2019 07:04 13,4 C 12,2 C 11,7 C 93 % 1018,1 hPa 0,0 l/m 0 min 0 min 0 W/m 3,2 km/h (1 Bft) 100,00 %
07.09.2019 07:06 13,3 C 12,2 C 11,7 C 93 % 1018,1 hPa 0,0 l/m 0 min 0 min 0 W/m 0,0 km/h (0 Bft) 97,87 %
07.09.2019 07:08 13,3 C 12,2 C 11,7 C 93 % 1018,2 hPa 0,0 l/m 0 min 0 min 0 W/m 0,0 km/h (0 Bft) 100,00 %
07.09.2019 07:10 13,3 C 12,2 C 11,7 C 94 % 1018,2 hPa 0,0 l/m 0 min 0 min 0 W/m 0,0 km/h (0 Bft) 97,83 %
07.09.2019 07:12 13,3 C 12,2 C 11,7 C 94 % 1018,2 hPa 0,0 l/m 0 min 0 min 2 W/m 0,0 km/h (0 Bft) 100,00 %
07.09.2019 07:14 13,3 C 12,2 C 11,7 C 94 % 1018,2 hPa 0,0 l/m 0 min 0 min 5 W/m 0,0 km/h (0 Bft) 97,87 %
07.09.2019 07:16 13,3 C 12,2 C 11,7 C 94 % 1018,2 hPa 0,0 l/m 0 min 0 min 5 W/m 0,0 km/h (0 Bft) 97,87 %
07.09.2019 07:18 13,3 C 12,2 C 11,7 C 94 % 1018,2 hPa 0,0 l/m 0 min 0 min 7 W/m 3,2 km/h (1 Bft) 95,74 %
07.09.2019 07:20 13,3 C 11,7 C 11,7 C 94 % 1018,1 hPa 0,0 l/m 0 min 0 min 7 W/m 3,2 km/h (1 Bft) 95,74 %
07.09.2019 07:22 13,3 C 11,7 C 11,7 C 94 % 1018,2 hPa 0,0 l/m 0 min 0 min 9 W/m 0,0 km/h (0 Bft) 95,74 %
07.09.2019 07:24 13,2 C 11,7 C 11,7 C 94 % 1018,2 hPa 0,0 l/m 0 min 0 min 11 W/m 0,0 km/h (0 Bft) 95,74 %
07.09.2019 07:26 13,2 C 11,7 C 11,7 C 94 % 1018,2 hPa 0,0 l/m 0 min 0 min 11 W/m 0,0 km/h (0 Bft) 95,74 %
07.09.2019 07:28 13,2 C 11,7 C 11,7 C 94 % 1018,1 hPa 0,0 l/m 0 min 0 min 11 W/m 0,0 km/h (0 Bft) 95,65 %
07.09.2019 07:30 13,2 C 11,7 C 11,7 C 94 % 1018,1 hPa 0,0 l/m 0 min 0 min 12 W/m 0,0 km/h (0 Bft) 95,74 %
07.09.2019 07:32 13,2 C 11,7 C 11,7 C 94 % 1018,2 hPa 0,0 l/m 0 min 0 min 14 W/m 3,2 km/h (1 Bft) 93,62 %
07.09.2019 07:34 13,2 C 11,7 C 11,7 C 94 % 1018,2 hPa 0,0 l/m 0 min 0 min 16 W/m 0,0 km/h (0 Bft) 91,49 %
07.09.2019 07:36 13,2 C 11,7 C 11,7 C 94 % 1018,2 hPa 0,0 l/m 0 min 0 min 14 W/m 3,2 km/h (1 Bft) 95,74 %
07.09.2019 07:38 13,2 C 12,2 C 11,7 C 94 % 1018,2 hPa 0,0 l/m 0 min 0 min 14 W/m 0,0 km/h (0 Bft) 95,74 %
07.09.2019 07:40 13,2 C 12,2 C 11,7 C 94 % 1018,3 hPa 0,0 l/m 0 min 0 min 14 W/m 0,0 km/h (0 Bft) 95,65 %
07.09.2019 07:42 13,2 C 11,7 C 11,7 C 94 % 1018,3 hPa 0,0 l/m 0 min 0 min 14 W/m 0,0 km/h (0 Bft) 95,74 %
07.09.2019 07:44 13,1 C 11,7 C 11,7 C 94 % 1018,3 hPa 0,0 l/m 0 min 0 min 16 W/m 0,0 km/h (0 Bft) 91,49 %
07.09.2019 07:46 13,1 C 11,7 C 11,7 C 94 % 1018,3 hPa 0,0 l/m 0 min 0 min 18 W/m 0,0 km/h (0 Bft) 91,49 %
07.09.2019 07:48 13,1 C 12,2 C 11,7 C 94 % 1018,3 hPa 0,0 l/m 0 min 0 min 20 W/m 0,0 km/h (0 Bft) 93,62 %
07.09.2019 07:50 13,1 C 12,2 C 11,7 C 94 % 1018,3 hPa 0,0 l/m 0 min 0 min 22 W/m 0,0 km/h (0 Bft) 93,62 %
07.09.2019 07:52 13,1 C 12,2 C 11,7 C 94 % 1018,3 hPa 0,0 l/m 0 min 0 min 24 W/m 0,0 km/h (0 Bft) 89,80 %
07.09.2019 07:54 13,1 C 12,2 C 11,7 C 94 % 1018,3 hPa 0,0 l/m 0 min 0 min 25 W/m 0,0 km/h (0 Bft) 93,62 %
07.09.2019 07:56 13,1 C 12,2 C 11,7 C 94 % 1018,3 hPa 0,0 l/m 0 min 0 min 25 W/m 3,2 km/h (1 Bft) 93,48 %
07.09.2019 07:58 13,1 C 12,2 C 11,7 C 94 % 1018,3 hPa 0,0 l/m 0 min 0 min 25 W/m 0,0 km/h (0 Bft) 91,49 %
07.09.2019 08:00 13,1 C 12,2 C 11,7 C 94 % 1018,3 hPa 0,0 l/m 0 min 0 min 26 W/m 0,0 km/h (0 Bft) 93,62 %
07.09.2019 08:02 13,1 C 12,2 C 11,7 C 94 % 1018,3 hPa 0,0 l/m 0 min 0 min 29 W/m 3,2 km/h (1 Bft) 93,62 %
07.09.2019 08:04 13,1 C 12,2 C 11,7 C 94 % 1018,4 hPa 0,0 l/m 0 min 0 min 33 W/m 3,2 km/h (1 Bft) 95,74 %
07.09.2019 08:06 13,1 C 12,2 C 11,7 C 94 % 1018,4 hPa 0,0 l/m 0 min 0 min 38 W/m 0,0 km/h (0 Bft) 93,62 %
07.09.2019 08:08 13,1 C 12,2 C 11,7 C 94 % 1018,3 hPa 0,0 l/m 0 min 0 min 39 W/m 0,0 km/h (0 Bft) 95,74 %
07.09.2019 08:10 13,1 C 12,2 C 11,7 C 94 % 1018,3 hPa 0,0 l/m 0 min 0 min 37 W/m 0,0 km/h (0 Bft) 91,49 %
07.09.2019 08:12 13,1 C 12,2 C 11,7 C 94 % 1018,3 hPa 0,0 l/m 0 min 0 min 34 W/m 6,4 km/h (2 Bft) 95,74 %
07.09.2019 08:14 13,1 C 12,2 C 11,7 C 94 % 1018,3 hPa 0,0 l/m 0 min 0 min 30 W/m 0,0 km/h (0 Bft) 95,65 %
07.09.2019 08:16 13,1 C 12,2 C 11,7 C 94 % 1018,3 hPa 0,0 l/m 0 min 0 min 28 W/m 0,0 km/h (0 Bft) 93,62 %
07.09.2019 08:18 13,1 C 12,2 C 11,7 C 94 % 1018,4 hPa 0,0 l/m 0 min 0 min 28 W/m 0,0 km/h (0 Bft) 95,74 %
07.09.2019 08:20 13,1 C 12,2 C 11,7 C 95 % 1018,4 hPa 0,0 l/m 0 min 0 min 31 W/m 0,0 km/h (0 Bft) 97,87 %
07.09.2019 08:22 13,1 C 12,2 C 11,7 C 95 % 1018,4 hPa 0,0 l/m 0 min 0 min 32 W/m 3,2 km/h (1 Bft) 97,87 %
07.09.2019 08:24 13,1 C 12,2 C 11,7 C 95 % 1018,4 hPa 0,0 l/m 0 min 0 min 34 W/m 3,2 km/h (1 Bft) 95,74 %
07.09.2019 08:26 13,1 C 12,2 C 11,7 C 95 % 1018,4 hPa 0,0 l/m 0 min 0 min 38 W/m 6,4 km/h (2 Bft) 95,65 %
07.09.2019 08:28 13,1 C 12,2 C 11,7 C 95 % 1018,4 hPa 0,0 l/m 0 min 0 min 43 W/m 3,2 km/h (1 Bft) 95,74 %
07.09.2019 08:30 13,1 C 12,2 C 12,2 C 95 % 1018,4 hPa 0,0 l/m 0 min 0 min 51 W/m 0,0 km/h (0 Bft) 95,74 %
07.09.2019 08:32 13,1 C 12,8 C 12,2 C 95 % 1018,4 hPa 0,0 l/m 0 min 0 min 63 W/m 3,2 km/h (1 Bft) 97,87 %
07.09.2019 08:34 13,1 C 12,8 C 12,2 C 95 % 1018,4 hPa 0,0 l/m 0 min 0 min 78 W/m 3,2 km/h (1 Bft) 100,00 %
07.09.2019 08:36 13,1 C 12,8 C 12,2 C 95 % 1018,4 hPa 0,0 l/m 0 min 0 min 83 W/m 6,4 km/h (2 Bft) 97,87 %
07.09.2019 08:38 13,1 C 12,8 C 12,2 C 95 % 1018,4 hPa 0,0 l/m 0 min 0 min 87 W/m 3,2 km/h (1 Bft) 100,00 %
07.09.2019 08:40 13,2 C 13,3 C 12,2 C 95 % 1018,4 hPa 0,0 l/m 0 min 0 min 90 W/m 0,0 km/h (0 Bft) 100,00 %
07.09.2019 08:42 13,2 C 13,3 C 12,8 C 95 % 1018,4 hPa 0,0 l/m 0 min 0 min 93 W/m 3,2 km/h (1 Bft) 100,00 %
07.09.2019 08:44 13,2 C 13,3 C 12,8 C 95 % 1018,4 hPa 0,0 l/m 0 min 0 min 95 W/m 3,2 km/h (1 Bft) 100,00 %
07.09.2019 08:46 13,2 C 13,3 C 12,8 C 95 % 1018,4 hPa 0,0 l/m 0 min 0 min 103 W/m 0,0 km/h (0 Bft) 100,00 %
07.09.2019 08:48 13,3 C 13,9 C 12,8 C 95 % 1018,4 hPa 0,0 l/m 0 min 0 min 127 W/m 3,2 km/h (1 Bft) 100,00 %
07.09.2019 08:50 13,3 C 13,9 C 13,3 C 95 % 1018,4 hPa 0,0 l/m 0 min 0 min 132 W/m 3,2 km/h (1 Bft) 100,00 %
07.09.2019 08:52 13,4 C 13,9 C 13,3 C 95 % 1018,4 hPa 0,0 l/m 0 min 0 min 138 W/m 6,4 km/h (2 Bft) 97,87 %
07.09.2019 08:54 13,4 C 14,4 C 13,3 C 95 % 1018,5 hPa 0,0 l/m 0 min 0 min 147 W/m 6,4 km/h (2 Bft) 100,00 %
07.09.2019 08:56 13,4 C 14,4 C 13,3 C 96 % 1018,5 hPa 0,0 l/m 0 min 0 min 148 W/m 6,4 km/h (2 Bft) 100,00 %
07.09.2019 08:58 13,5 C 14,4 C 13,3 C 96 % 1018,5 hPa 0,0 l/m 0 min 0 min 144 W/m 3,2 km/h (1 Bft) 100,00 %
07.09.2019 09:00 13,6 C 14,4 C 13,3 C 96 % 1018,5 hPa 0,0 l/m 0 min 0 min 141 W/m 6,4 km/h (2 Bft) 100,00 %
07.09.2019 09:02 13,7 C 14,4 C 13,9 C 96 % 1018,5 hPa 0,0 l/m 0 min 0 min 136 W/m 0,0 km/h (0 Bft) 100,00 %
07.09.2019 09:04 13,7 C 14,4 C 13,9 C 96 % 1018,6 hPa 0,0 l/m 0 min 0 min 131 W/m 3,2 km/h (1 Bft) 100,00 %
07.09.2019 09:06 13,8 C 14,4 C 13,9 C 96 % 1018,6 hPa 0,0 l/m 0 min 0 min 125 W/m 0,0 km/h (0 Bft) 97,87 %
07.09.2019 09:08 13,9 C 14,4 C 13,9 C 96 % 1018,6 hPa 0,0 l/m 0 min 0 min 118 W/m 3,2 km/h (1 Bft) 100,00 %
07.09.2019 09:10 13,9 C 14,4 C 13,9 C 96 % 1018,6 hPa 0,0 l/m 0 min 0 min 115 W/m 0,0 km/h (0 Bft) 97,87 %
07.09.2019 09:12 13,9 C 14,4 C 13,9 C 96 % 1018,6 hPa 0,0 l/m 0 min 0 min 128 W/m 6,4 km/h (2 Bft) 100,00 %
07.09.2019 09:14 14,0 C 14,4 C 13,9 C 96 % 1018,6 hPa 0,0 l/m 0 min 0 min 140 W/m 3,2 km/h (1 Bft) 100,00 %
07.09.2019 09:16 14,0 C 15,0 C 13,9 C 96 % 1018,6 hPa 0,0 l/m 0 min 0 min 129 W/m 0,0 km/h (0 Bft) 100,00 %
07.09.2019 09:18 14,1 C 15,0 C 13,9 C 96 % 1018,6 hPa 0,0 l/m 0 min 0 min 147 W/m 3,2 km/h (1 Bft) 97,87 %
07.09.2019 09:20 14,2 C 15,0 C 13,9 C 96 % 1018,7 hPa 0,0 l/m 0 min 0 min 131 W/m 0,0 km/h (0 Bft) 97,87 %
07.09.2019 09:22 14,2 C 15,0 C 13,9 C 96 % 1018,7 hPa 0,0 l/m 0 min 0 min 117 W/m 3,2 km/h (1 Bft) 97,87 %
07.09.2019 09:24 14,2 C 15,0 C 13,9 C 96 % 1018,7 hPa 0,0 l/m 0 min 0 min 133 W/m 3,2 km/h (1 Bft) 100,00 %
07.09.2019 09:26 14,2 C 15,6 C 13,9 C 96 % 1018,7 hPa 0,0 l/m 0 min 0 min 148 W/m 6,4 km/h (2 Bft) 100,00 %
07.09.2019 09:28 14,2 C 15,6 C 13,9 C 96 % 1018,8 hPa 0,0 l/m 0 min 0 min 156 W/m 3,2 km/h (1 Bft) 100,00 %
07.09.2019 09:30 14,2 C 15,6 C 13,9 C 95 % 1018,8 hPa 0,0 l/m 0 min 0 min 161 W/m 0,0 km/h (0 Bft) 100,00 %
07.09.2019 09:32 14,2 C 15,6 C 13,9 C 95 % 1018,8 hPa 0,0 l/m 0 min 0 min 167 W/m 3,2 km/h (1 Bft) 97,87 %
07.09.2019 09:34 14,2 C 16,1 C 13,9 C 95 % 1018,7 hPa 0,0 l/m 0 min 0 min 152 W/m 6,4 km/h (2 Bft) 100,00 %
07.09.2019 09:36 14,3 C 16,1 C 13,9 C 95 % 1018,8 hPa 0,0 l/m 0 min 0 min 153 W/m 3,2 km/h (1 Bft) 97,83 %
07.09.2019 09:38 14,4 C 16,1 C 14,4 C 95 % 1018,8 hPa 0,0 l/m 0 min 0 min 181 W/m 6,4 km/h (2 Bft) 100,00 %
07.09.2019 09:40 14,4 C 16,1 C 14,4 C 95 % 1018,8 hPa 0,0 l/m 0 min 0 min 197 W/m 3,2 km/h (1 Bft) 100,00 %
07.09.2019 09:42 14,4 C 16,1 C 15,0 C 95 % 1018,8 hPa 0,0 l/m 0 min 0 min 196 W/m 6,4 km/h (2 Bft) 100,00 %
07.09.2019 09:44 14,4 C 16,1 C 15,0 C 95 % 1018,8 hPa 0,0 l/m 0 min 0 min 189 W/m 0,0 km/h (0 Bft) 100,00 %
07.09.2019 09:46 14,6 C 16,1 C 15,0 C 95 % 1018,8 hPa 0,0 l/m 0 min 0 min 173 W/m 3,2 km/h (1 Bft) 100,00 %
07.09.2019 09:48 14,6 C 16,1 C 15,0 C 94 % 1018,8 hPa 0,0 l/m 0 min 0 min 149 W/m 6,4 km/h (2 Bft) 100,00 %
07.09.2019 09:50 14,7 C 16,1 C 15,0 C 94 % 1018,9 hPa 0,0 l/m 0 min 0 min 145 W/m 3,2 km/h (1 Bft) 100,00 %
07.09.2019 09:52 14,7 C 16,1 C 15,0 C 94 % 1018,9 hPa 0,0 l/m 0 min 0 min 150 W/m 6,4 km/h (2 Bft) 100,00 %
07.09.2019 09:54 14,7 C 16,1 C 15,0 C 94 % 1018,9 hPa 0,0 l/m 0 min 0 min 150 W/m 6,4 km/h (2 Bft) 100,00 %
07.09.2019 09:56 14,8 C 16,1 C 15,0 C 94 % 1019,0 hPa 0,0 l/m 0 min 0 min 155 W/m 0,0 km/h (0 Bft) 100,00 %
07.09.2019 09:58 14,8 C 16,1 C 15,0 C 93 % 1019,1 hPa 0,0 l/m 0 min 0 min 159 W/m 3,2 km/h (1 Bft) 97,87 %
07.09.2019 10:00 14,9 C 16,1 C 15,6 C 93 % 1019,0 hPa 0,0 l/m 0 min 0 min 156 W/m 3,2 km/h (1 Bft) 100,00 %
07.09.2019 10:02 14,9 C 16,1 C 15,6 C 93 % 1019,0 hPa 0,0 l/m 0 min 0 min 160 W/m 3,2 km/h (1 Bft) 100,00 %
07.09.2019 10:04 14,9 C 16,1 C 15,6 C 93 % 1019,0 hPa 0,0 l/m 0 min 0 min 188 W/m 0,0 km/h (0 Bft) 97,87 %
07.09.2019 10:06 14,9 C 16,1 C 15,0 C 93 % 1019,0 hPa 0,0 l/m 0 min 0 min 198 W/m 3,2 km/h (1 Bft) 97,87 %
07.09.2019 10:08 15,0 C 16,1 C 15,0 C 92 % 1019,0 hPa 0,0 l/m 0 min 0 min 192 W/m 3,2 km/h (1 Bft) 100,00 %
07.09.2019 10:10 15,0 C 16,1 C 15,0 C 91 % 1019,0 hPa 0,0 l/m 0 min 0 min 185 W/m 3,2 km/h (1 Bft) 100,00 %
07.09.2019 10:12 15,1 C 16,7 C 15,6 C 91 % 1019,0 hPa 0,0 l/m 0 min 0 min 196 W/m 3,2 km/h (1 Bft) 97,83 %
07.09.2019 10:14 15,1 C 16,7 C 15,6 C 91 % 1019,2 hPa 0,0 l/m 0 min 0 min 199 W/m 3,2 km/h (1 Bft) 97,87 %
07.09.2019 10:16 15,1 C 16,7 C 15,6 C 91 % 1019,2 hPa 0,0 l/m 0 min 0 min 199 W/m 0,0 km/h (0 Bft) 95,74 %
07.09.2019 10:18 15,2 C 16,7 C 15,6 C 91 % 1019,1 hPa 0,0 l/m 0 min 0 min 196 W/m 3,2 km/h (1 Bft) 100,00 %
07.09.2019 10:20 15,2 C 16,1 C 15,6 C 90 % 1019,2 hPa 0,0 l/m 0 min 0 min 182 W/m 6,4 km/h (2 Bft) 97,87 %
07.09.2019 10:22 15,2 C 16,7 C 15,6 C 90 % 1019,1 hPa 0,0 l/m 0 min 0 min 175 W/m 3,2 km/h (1 Bft) 95,65 %
07.09.2019 10:24 15,3 C 16,7 C 15,6 C 90 % 1019,1 hPa 0,0 l/m 0 min 0 min 180 W/m 0,0 km/h (0 Bft) 91,49 %
07.09.2019 10:26 15,3 C 16,7 C 15,6 C 90 % 1019,1 hPa 0,0 l/m 0 min 0 min 179 W/m 0,0 km/h (0 Bft) 95,74 %
07.09.2019 10:28 15,4 C 16,7 C 15,6 C 90 % 1019,0 hPa 0,0 l/m 0 min 0 min 188 W/m 3,2 km/h (1 Bft) 93,62 %
07.09.2019 10:30 15,4 C 16,7 C 16,1 C 89 % 1019,1 hPa 0,0 l/m 0 min 0 min 193 W/m 0,0 km/h (0 Bft) 95,74 %
07.09.2019 10:32 15,5 C 17,2 C 16,1 C 90 % 1019,1 hPa 0,0 l/m 0 min 0 min 200 W/m 0,0 km/h (0 Bft) 95,74 %
07.09.2019 10:34 15,5 C 17,8 C 16,7 C 90 % 1019,1 hPa 0,0 l/m 0 min 0 min 207 W/m 0,0 km/h (0 Bft) 95,65 %
07.09.2019 10:36 15,6 C 17,8 C 16,7 C 89 % 1019,1 hPa 0,0 l/m 0 min 0 min 211 W/m 0,0 km/h (0 Bft) 93,62 %
07.09.2019 10:38 15,6 C 18,3 C 16,7 C 89 % 1019,2 hPa 0,0 l/m 0 min 0 min 210 W/m 0,0 km/h (0 Bft) 93,62 %
07.09.2019 10:40 15,7 C 18,3 C 16,7 C 89 % 1019,2 hPa 0,0 l/m 0 min 0 min 238 W/m 0,0 km/h (0 Bft) 91,49 %
07.09.2019 10:42 15,8 C 18,3 C 17,2 C 89 % 1019,0 hPa 0,0 l/m 0 min 0 min 261 W/m 0,0 km/h (0 Bft) 91,49 %
07.09.2019 10:44 15,8 C 18,3 C 17,2 C 89 % 1019,0 hPa 0,0 l/m 0 min 0 min 203 W/m 0,0 km/h (0 Bft) 93,62 %
07.09.2019 10:46 15,9 C 18,3 C 17,2 C 89 % 1019,1 hPa 0,0 l/m 0 min 0 min 192 W/m 0,0 km/h (0 Bft) 91,30 %
07.09.2019 10:48 15,9 C 18,9 C 17,8 C 88 % 1019,1 hPa 0,0 l/m 0 min 0 min 234 W/m 6,4 km/h (2 Bft) 93,62 %
07.09.2019 10:50 15,9 C 20,0 C 18,9 C 88 % 1019,1 hPa 0,0 l/m 2 min 0 min 456 W/m 0,0 km/h (0 Bft) 93,62 %
07.09.2019 10:52 16,1 C 20,0 C 18,9 C 88 % 1019,0 hPa 0,0 l/m 2 min 0 min 384 W/m 0,0 km/h (0 Bft) 93,62 %
07.09.2019 10:54 16,1 C 20,6 C 18,9 C 87 % 1019,0 hPa 0,0 l/m 2 min 0 min 374 W/m 0,0 km/h (0 Bft) 93,62 %
07.09.2019 10:56 16,2 C 21,1 C 18,3 C 87 % 1019,0 hPa 0,0 l/m 2 min 0 min 377 W/m 0,0 km/h (0 Bft) 93,62 %
07.09.2019 10:58 16,3 C 21,7 C 17,8 C 87 % 1019,0 hPa 0,0 l/m 2 min 0 min 414 W/m 0,0 km/h (0 Bft) 93,48 %
07.09.2019 11:00 16,3 C 22,8 C 17,8 C 87 % 1019,0 hPa 0,0 l/m 2 min 0 min 611 W/m 0,0 km/h (0 Bft) 89,36 %
07.09.2019 11:02 16,4 C 23,3 C 17,8 C 86 % 1019,0 hPa 0,0 l/m 2 min 0 min 620 W/m 0,0 km/h (0 Bft) 93,62 %
07.09.2019 11:04 16,6 C 24,4 C 17,8 C 86 % 1019,0 hPa 0,0 l/m 2 min 0 min 636 W/m 0,0 km/h (0 Bft) 95,74 %
07.09.2019 11:06 16,7 C 22,8 C 17,8 C 86 % 1019,0 hPa 0,0 l/m 2 min 0 min 634 W/m 9,7 km/h (2 Bft) 95,74 %
07.09.2019 11:08 16,8 C 22,8 C 17,8 C 86 % 1018,9 hPa 0,0 l/m 2 min 0 min 603 W/m 3,2 km/h (1 Bft) 93,62 %
07.09.2019 11:10 16,9 C 23,9 C 17,8 C 85 % 1019,0 hPa 0,0 l/m 2 min 0 min 335 W/m 0,0 km/h (0 Bft) 95,65 %
07.09.2019 11:12 17,1 C 23,9 C 17,8 C 85 % 1019,0 hPa 0,0 l/m 2 min 0 min 627 W/m 0,0 km/h (0 Bft) 95,74 %
07.09.2019 11:14 17,2 C 24,4 C 18,3 C 84 % 1018,9 hPa 0,0 l/m 2 min 0 min 603 W/m 3,2 km/h (1 Bft) 95,74 %
07.09.2019 11:16 17,3 C 23,9 C 17,8 C 83 % 1018,9 hPa 0,0 l/m 2 min 0 min 698 W/m 6,4 km/h (2 Bft) 93,62 %
07.09.2019 11:18 17,4 C 23,3 C 17,8 C 82 % 1018,8 hPa 0,0 l/m 2 min 0 min 712 W/m 9,7 km/h (2 Bft) 93,62 %
07.09.2019 11:20 17,5 C 23,9 C 18,3 C 82 % 1018,8 hPa 0,0 l/m 2 min 0 min 743 W/m 9,7 km/h (2 Bft) 95,65 %
07.09.2019 11:22 17,6 C 25,6 C 18,3 C 81 % 1018,9 hPa 0,0 l/m 2 min 0 min 742 W/m 6,4 km/h (2 Bft) 95,74 %
07.09.2019 11:24 17,8 C 26,7 C 18,9 C 80 % 1018,9 hPa 0,0 l/m 2 min 0 min 764 W/m 6,4 km/h (2 Bft) 97,87 %
07.09.2019 11:26 17,9 C 26,1 C 18,9 C 79 % 1018,8 hPa 0,0 l/m 2 min 0 min 779 W/m 3,2 km/h (1 Bft) 97,87 %
07.09.2019 11:28 18,1 C 25,0 C 18,9 C 79 % 1018,8 hPa 0,0 l/m 2 min 0 min 657 W/m 9,7 km/h (2 Bft) 97,87 %
07.09.2019 11:30 18,2 C 22,2 C 18,3 C 78 % 1018,8 hPa 0,0 l/m 2 min 0 min 461 W/m 19,3 km/h (3 Bft) 93,62 %
07.09.2019 11:32 18,2 C 20,0 C 17,8 C 76 % 1018,7 hPa 0,0 l/m 0 min 0 min 139 W/m 12,9 km/h (3 Bft) 95,65 %
07.09.2019 11:34 18,2 C 18,9 C 17,2 C 76 % 1018,8 hPa 0,0 l/m 0 min 0 min 135 W/m 6,4 km/h (2 Bft) 97,87 %
07.09.2019 11:36 18,2 C 19,4 C 17,2 C 75 % 1018,7 hPa 0,0 l/m 0 min 0 min 172 W/m 0,0 km/h (0 Bft) 97,87 %
07.09.2019 11:38 18,2 C 21,1 C 17,2 C 76 % 1018,7 hPa 0,0 l/m 0 min 0 min 298 W/m 0,0 km/h (0 Bft) 97,87 %
07.09.2019 11:40 18,2 C 21,1 C 17,2 C 76 % 1018,7 hPa 0,0 l/m 2 min 0 min 712 W/m 9,7 km/h (2 Bft) 97,87 %
07.09.2019 11:42 18,2 C 23,3 C 17,2 C 75 % 1018,7 hPa 0,0 l/m 2 min 0 min 719 W/m 6,4 km/h (2 Bft) 97,87 %
07.09.2019 11:44 18,3 C 23,3 C 17,2 C 75 % 1018,6 hPa 0,0 l/m 2 min 0 min 738 W/m 0,0 km/h (0 Bft) 97,83 %
07.09.2019 11:46 18,3 C 25,6 C 17,8 C 75 % 1018,7 hPa 0,0 l/m 2 min 0 min 753 W/m 3,2 km/h (1 Bft) 97,87 %
07.09.2019 11:48 18,4 C 24,4 C 17,8 C 75 % 1018,6 hPa 0,0 l/m 2 min 0 min 779 W/m 9,7 km/h (2 Bft) 97,87 %
07.09.2019 11:50 18,4 C 25,0 C 18,3 C 75 % 1018,6 hPa 0,0 l/m 2 min 0 min 815 W/m 9,7 km/h (2 Bft) 97,87 %
07.09.2019 11:52 18,6 C 26,1 C 18,9 C 74 % 1018,5 hPa 0,0 l/m 2 min 0 min 814 W/m 9,7 km/h (2 Bft) 97,87 %
07.09.2019 11:54 18,7 C 26,1 C 18,9 C 74 % 1018,5 hPa 0,0 l/m 2 min 0 min 812 W/m 12,9 km/h (3 Bft) 95,74 %
07.09.2019 11:56 18,8 C 26,1 C 18,9 C 74 % 1018,5 hPa 0,0 l/m 2 min 0 min 851 W/m 12,9 km/h (3 Bft) 95,65 %
07.09.2019 11:58 18,9 C 25,0 C 19,4 C 73 % 1018,5 hPa 0,0 l/m 2 min 0 min 882 W/m 12,9 km/h (3 Bft) 97,87 %
07.09.2019 12:00 18,9 C 25,6 C 19,4 C 72 % 1018,5 hPa 0,0 l/m 2 min 0 min 857 W/m 6,4 km/h (2 Bft) 95,74 %
07.09.2019 12:02 19,1 C 23,9 C 19,4 C 72 % 1018,5 hPa 0,0 l/m 2 min 0 min 796 W/m 9,7 km/h (2 Bft) 97,87 %
07.09.2019 12:04 19,1 C 22,8 C 18,9 C 71 % 1018,5 hPa 0,0 l/m 2 min 0 min 357 W/m 9,7 km/h (2 Bft) 100,00 %
07.09.2019 12:08 19,2 C 24,4 C 18,9 C 71 % 1018,4 hPa 0,0 l/m 4 min 0 min 739 W/m 6,4 km/h (2 Bft) 98,92 %
07.09.2019 12:10 19,3 C 25,6 C 18,9 C 70 % 1018,4 hPa 0,0 l/m 2 min 0 min 839 W/m 6,4 km/h (2 Bft) 97,87 %
07.09.2019 12:12 19,3 C 23,9 C 19,4 C 70 % 1018,4 hPa 0,0 l/m 2 min 0 min 862 W/m 12,9 km/h (3 Bft) 100,00 %
07.09.2019 12:14 19,4 C 21,7 C 18,9 C 69 % 1018,3 hPa 0,0 l/m 0 min 0 min 247 W/m 16,1 km/h (3 Bft) 100,00 %
07.09.2019 12:16 19,4 C 20,0 C 18,9 C 68 % 1018,4 hPa 0,0 l/m 0 min 0 min 187 W/m 12,9 km/h (3 Bft) 100,00 %
07.09.2019 12:18 19,4 C 19,4 C 17,8 C 68 % 1018,3 hPa 0,0 l/m 0 min 2 min 174 W/m 6,4 km/h (2 Bft) 100,00 %
07.09.2019 12:20 19,4 C 18,9 C 17,2 C 69 % 1018,4 hPa 0,0 l/m 0 min 2 min 172 W/m 0,0 km/h (0 Bft) 100,00 %
07.09.2019 12:22 19,4 C 17,8 C 16,7 C 71 % 1018,4 hPa 0,0 l/m 0 min 2 min 173 W/m 0,0 km/h (0 Bft) 97,87 %
07.09.2019 12:24 19,3 C 17,2 C 16,1 C 72 % 1018,4 hPa 0,0 l/m 0 min 2 min 175 W/m 0,0 km/h (0 Bft) 100,00 %
07.09.2019 12:26 19,2 C 17,2 C 16,1 C 74 % 1018,4 hPa 0,0 l/m 0 min 2 min 195 W/m 3,2 km/h (1 Bft) 97,87 %
07.09.2019 12:28 19,2 C 17,2 C 16,1 C 75 % 1018,4 hPa 0,0 l/m 0 min 2 min 233 W/m 0,0 km/h (0 Bft) 100,00 %
07.09.2019 12:30 19,1 C 17,8 C 16,1 C 76 % 1018,4 hPa 0,0 l/m 0 min 2 min 249 W/m 0,0 km/h (0 Bft) 100,00 %
07.09.2019 12:32 19,1 C 20,0 C 16,7 C 76 % 1018,4 hPa 0,0 l/m 0 min 0 min 250 W/m 3,2 km/h (1 Bft) 97,83 %
07.09.2019 12:34 19,0 C 23,3 C 16,7 C 74 % 1018,4 hPa 0,0 l/m 2 min 0 min 669 W/m 0,0 km/h (0 Bft) 100,00 %
07.09.2019 12:36 19,1 C 25,0 C 17,8 C 75 % 1018,3 hPa 0,0 l/m 2 min 0 min 841 W/m 3,2 km/h (1 Bft) 100,00 %
07.09.2019 12:38 19,2 C 26,7 C 18,9 C 75 % 1018,3 hPa 0,0 l/m 2 min 0 min 845 W/m 12,9 km/h (3 Bft) 100,00 %
07.09.2019 12:40 19,3 C 26,1 C 18,9 C 73 % 1018,3 hPa 0,0 l/m 2 min 0 min 847 W/m 12,9 km/h (3 Bft) 100,00 %
07.09.2019 12:42 19,3 C 26,1 C 18,9 C 71 % 1018,3 hPa 0,0 l/m 2 min 0 min 838 W/m 6,4 km/h (2 Bft) 100,00 %
07.09.2019 12:44 19,4 C 26,7 C 19,4 C 72 % 1018,3 hPa 0,0 l/m 2 min 0 min 818 W/m 3,2 km/h (1 Bft) 97,87 %
07.09.2019 12:46 19,6 C 26,1 C 20,0 C 70 % 1018,4 hPa 0,0 l/m 2 min 0 min 808 W/m 12,9 km/h (3 Bft) 93,62 %
07.09.2019 12:48 19,7 C 26,1 C 20,0 C 69 % 1018,4 hPa 0,0 l/m 2 min 0 min 804 W/m 6,4 km/h (2 Bft) 97,87 %
07.09.2019 12:50 19,7 C 26,7 C 19,4 C 68 % 1018,3 hPa 0,0 l/m 2 min 0 min 825 W/m 6,4 km/h (2 Bft) 97,87 %
07.09.2019 12:52 19,9 C 26,7 C 19,4 C 69 % 1018,3 hPa 0,0 l/m 2 min 0 min 820 W/m 6,4 km/h (2 Bft) 97,87 %
07.09.2019 12:54 20,0 C 25,0 C 19,4 C 69 % 1018,3 hPa 0,0 l/m 2 min 0 min 531 W/m 3,2 km/h (1 Bft) 97,83 %
07.09.2019 12:56 20,1 C 23,9 C 19,4 C 67 % 1018,4 hPa 0,0 l/m 2 min 0 min 431 W/m 3,2 km/h (1 Bft) 97,87 %
07.09.2019 12:58 20,1 C 22,8 C 19,4 C 65 % 1018,4 hPa 0,0 l/m 0 min 0 min 331 W/m 6,4 km/h (2 Bft) 95,74 %
07.09.2019 13:00 20,2 C 22,8 C 19,4 C 66 % 1018,4 hPa 0,0 l/m 0 min 0 min 306 W/m 3,2 km/h (1 Bft) 97,87 %
07.09.2019 13:02 20,2 C 22,2 C 19,4 C 66 % 1018,4 hPa 0,0 l/m 0 min 0 min 327 W/m 0,0 km/h (0 Bft) 97,87 %
07.09.2019 13:04 20,2 C 22,8 C 19,4 C 65 % 1018,3 hPa 0,0 l/m 0 min 0 min 304 W/m 6,4 km/h (2 Bft) 95,74 %
07.09.2019 13:06 20,2 C 21,7 C 19,4 C 65 % 1018,3 hPa 0,0 l/m 0 min 0 min 235 W/m 9,7 km/h (2 Bft) 95,65 %
07.09.2019 13:08 20,1 C 20,6 C 18,9 C 67 % 1018,4 hPa 0,0 l/m 0 min 0 min 143 W/m 9,7 km/h (2 Bft) 97,87 %
07.09.2019 13:10 20,0 C 19,4 C 18,3 C 68 % 1018,5 hPa 0,0 l/m 0 min 0 min 105 W/m 16,1 km/h (3 Bft) 97,87 %
07.09.2019 13:12 19,9 C 18,9 C 17,8 C 66 % 1018,5 hPa 0,0 l/m 0 min 0 min 79 W/m 6,4 km/h (2 Bft) 97,87 %
07.09.2019 13:14 19,7 C 17,8 C 16,7 C 66 % 1018,5 hPa 0,0 l/m 0 min 2 min 65 W/m 19,3 km/h (3 Bft) 97,87 %
07.09.2019 13:16 19,5 C 17,2 C 16,1 C 67 % 1018,5 hPa 0,0 l/m 0 min 0 min 62 W/m 12,9 km/h (3 Bft) 97,83 %
07.09.2019 13:18 19,2 C 16,1 C 15,0 C 69 % 1018,6 hPa 0,0 l/m 0 min 2 min 66 W/m 12,9 km/h (3 Bft) 95,74 %
07.09.2019 13:20 19,0 C 15,6 C 14,4 C 71 % 1018,6 hPa 0,0 l/m 0 min 2 min 70 W/m 3,2 km/h (1 Bft) 95,74 %
07.09.2019 13:22 18,8 C 15,6 C 14,4 C 73 % 1018,6 hPa 0,0 l/m 0 min 2 min 70 W/m 3,2 km/h (1 Bft) 97,87 %
07.09.2019 13:24 18,6 C 15,0 C 13,9 C 73 % 1018,5 hPa 0,0 l/m 0 min 2 min 73 W/m 3,2 km/h (1 Bft) 100,00 %
07.09.2019 13:26 18,4 C 15,0 C 13,9 C 74 % 1018,5 hPa 0,0 l/m 0 min 2 min 79 W/m 9,7 km/h (2 Bft) 97,87 %
07.09.2019 13:28 18,2 C 15,0 C 13,9 C 75 % 1018,5 hPa 0,0 l/m 0 min 2 min 86 W/m 9,7 km/h (2 Bft) 97,83 %
07.09.2019 13:30 18,1 C 14,4 C 13,9 C 76 % 1018,5 hPa 0,0 l/m 0 min 2 min 95 W/m 3,2 km/h (1 Bft) 97,87 %
07.09.2019 13:32 17,9 C 14,4 C 13,3 C 77 % 1018,6 hPa 0,2 l/m 0 min 2 min 103 W/m 3,2 km/h (1 Bft) 97,87 %
07.09.2019 13:34 17,7 C 13,9 C 13,3 C 77 % 1018,6 hPa 0,0 l/m 0 min 2 min 112 W/m 12,9 km/h (3 Bft) 97,87 %
07.09.2019 13:36 17,4 C 13,9 C 12,8 C 77 % 1018,5 hPa 0,0 l/m 0 min 2 min 120 W/m 3,2 km/h (1 Bft) 95,74 %
07.09.2019 13:38 17,3 C 13,9 C 12,8 C 78 % 1018,4 hPa 0,0 l/m 0 min 2 min 127 W/m 3,2 km/h (1 Bft) 97,87 %
07.09.2019 13:40 17,1 C 13,3 C 12,8 C 78 % 1018,5 hPa 0,0 l/m 0 min 2 min 131 W/m 0,0 km/h (0 Bft) 97,83 %
07.09.2019 13:42 17,0 C 13,9 C 12,8 C 79 % 1018,4 hPa 0,2 l/m 0 min 2 min 135 W/m 0,0 km/h (0 Bft) 97,87 %
07.09.2019 13:44 16,9 C 13,9 C 13,3 C 80 % 1018,4 hPa 0,0 l/m 0 min 2 min 140 W/m 0,0 km/h (0 Bft) 97,87 %
07.09.2019 13:46 16,8 C 13,9 C 12,8 C 81 % 1018,4 hPa 0,2 l/m 0 min 2 min 150 W/m 0,0 km/h (0 Bft) 97,87 %
07.09.2019 13:48 16,7 C 13,9 C 12,8 C 82 % 1018,4 hPa 0,0 l/m 0 min 2 min 159 W/m 0,0 km/h (0 Bft) 97,87 %
07.09.2019 13:50 16,7 C 13,9 C 12,8 C 82 % 1018,5 hPa 0,0 l/m 0 min 2 min 166 W/m 0,0 km/h (0 Bft) 95,74 %
07.09.2019 13:52 16,6 C 13,9 C 13,3 C 83 % 1018,5 hPa 0,0 l/m 0 min 2 min 177 W/m 0,0 km/h (0 Bft) 97,83 %
07.09.2019 13:54 16,6 C 14,4 C 13,3 C 83 % 1018,5 hPa 0,0 l/m 0 min 0 min 192 W/m 0,0 km/h (0 Bft) 97,87 %
07.09.2019 13:56 16,5 C 15,0 C 13,3 C 84 % 1018,5 hPa 0,0 l/m 0 min 0 min 212 W/m 0,0 km/h (0 Bft) 97,87 %
07.09.2019 13:58 16,4 C 15,0 C 13,9 C 84 % 1018,5 hPa 0,0 l/m 0 min 0 min 230 W/m 3,2 km/h (1 Bft) 97,87 %
07.09.2019 14:00 16,4 C 15,6 C 13,9 C 85 % 1018,5 hPa 0,0 l/m 0 min 0 min 256 W/m 0,0 km/h (0 Bft) 97,87 %
07.09.2019 14:02 16,4 C 16,1 C 14,4 C 86 % 1018,5 hPa 0,0 l/m 0 min 0 min 274 W/m 3,2 km/h (1 Bft) 97,87 %
07.09.2019 14:04 16,4 C 16,1 C 15,0 C 86 % 1018,4 hPa 0,0 l/m 0 min 0 min 288 W/m 6,4 km/h (2 Bft) 97,83 %
07.09.2019 14:06 16,4 C 16,7 C 15,0 C 87 % 1018,4 hPa 0,0 l/m 0 min 0 min 302 W/m 6,4 km/h (2 Bft) 97,87 %
07.09.2019 14:08 16,5 C 17,2 C 15,0 C 88 % 1018,4 hPa 0,0 l/m 2 min 0 min 361 W/m 3,2 km/h (1 Bft) 97,87 %
07.09.2019 14:10 16,6 C 18,3 C 15,6 C 88 % 1018,3 hPa 0,0 l/m 2 min 0 min 432 W/m 0,0 km/h (0 Bft) 97,87 %
07.09.2019 14:12 16,6 C 19,4 C 16,7 C 89 % 1018,3 hPa 0,0 l/m 2 min 0 min 566 W/m 3,2 km/h (1 Bft) 97,87 %
07.09.2019 14:14 16,8 C 20,6 C 17,2 C 89 % 1018,3 hPa 0,0 l/m 2 min 0 min 700 W/m 0,0 km/h (0 Bft) 97,83 %
07.09.2019 14:16 17,0 C 22,2 C 16,7 C 89 % 1018,3 hPa 0,0 l/m 2 min 0 min 945 W/m 6,4 km/h (2 Bft) 97,87 %
07.09.2019 14:18 17,2 C 22,2 C 16,7 C 90 % 1018,3 hPa 0,0 l/m 2 min 0 min 944 W/m 3,2 km/h (1 Bft) 97,87 %
07.09.2019 14:20 17,4 C 22,8 C 16,7 C 89 % 1018,3 hPa 0,0 l/m 2 min 0 min 926 W/m 6,4 km/h (2 Bft) 97,87 %
07.09.2019 14:22 17,6 C 23,3 C 16,7 C 88 % 1018,3 hPa 0,0 l/m 2 min 0 min 916 W/m 16,1 km/h (3 Bft) 97,87 %
07.09.2019 14:24 17,8 C 22,8 C 17,2 C 88 % 1018,4 hPa 0,0 l/m 2 min 0 min 914 W/m 16,1 km/h (3 Bft) 95,74 %
07.09.2019 14:26 18,0 C 22,8 C 17,2 C 87 % 1018,4 hPa 0,0 l/m 2 min 0 min 911 W/m 6,4 km/h (2 Bft) 97,87 %
07.09.2019 14:28 18,3 C 23,3 C 16,7 C 86 % 1018,3 hPa 0,0 l/m 2 min 0 min 901 W/m 6,4 km/h (2 Bft) 100,00 %
07.09.2019 14:30 18,6 C 23,3 C 16,7 C 86 % 1018,3 hPa 0,0 l/m 2 min 0 min 893 W/m 6,4 km/h (2 Bft) 100,00 %
07.09.2019 14:32 18,8 C 23,9 C 16,7 C 84 % 1018,3 hPa 0,0 l/m 2 min 0 min 891 W/m 9,7 km/h (2 Bft) 100,00 %
07.09.2019 14:34 18,9 C 23,9 C 16,7 C 81 % 1018,3 hPa 0,0 l/m 2 min 0 min 903 W/m 3,2 km/h (1 Bft) 97,87 %
07.09.2019 14:36 19,1 C 23,3 C 17,2 C 80 % 1018,3 hPa 0,0 l/m 2 min 0 min 907 W/m 6,4 km/h (2 Bft) 95,74 %
07.09.2019 14:38 19,3 C 23,3 C 16,7 C 80 % 1018,3 hPa 0,0 l/m 2 min 0 min 894 W/m 9,7 km/h (2 Bft) 100,00 %
07.09.2019 14:40 19,5 C 23,3 C 16,7 C 79 % 1018,4 hPa 0,0 l/m 2 min 0 min 868 W/m 9,7 km/h (2 Bft) 100,00 %
07.09.2019 14:42 19,7 C 23,9 C 17,2 C 79 % 1018,4 hPa 0,0 l/m 2 min 0 min 782 W/m 9,7 km/h (2 Bft) 100,00 %
07.09.2019 14:44 19,8 C 22,8 C 16,7 C 76 % 1018,3 hPa 0,0 l/m 2 min 0 min 681 W/m 9,7 km/h (2 Bft) 97,87 %
07.09.2019 14:46 19,8 C 20,6 C 16,7 C 73 % 1018,4 hPa 0,0 l/m 2 min 0 min 664 W/m 6,4 km/h (2 Bft) 95,74 %
07.09.2019 14:48 19,9 C 20,6 C 16,7 C 74 % 1018,4 hPa 0,0 l/m 2 min 0 min 387 W/m 3,2 km/h (1 Bft) 100,00 %
07.09.2019 14:50 19,8 C 20,6 C 16,7 C 73 % 1018,4 hPa 0,0 l/m 2 min 0 min 381 W/m 9,7 km/h (2 Bft) 97,83 %
07.09.2019 14:52 19,8 C 21,1 C 16,7 C 73 % 1018,4 hPa 0,0 l/m 2 min 0 min 387 W/m 6,4 km/h (2 Bft) 97,87 %
07.09.2019 14:54 19,7 C 22,8 C 16,1 C 72 % 1018,4 hPa 0,0 l/m 2 min 0 min 373 W/m 6,4 km/h (2 Bft) 97,87 %
07.09.2019 14:56 19,8 C 23,9 C 16,7 C 73 % 1018,4 hPa 0,0 l/m 2 min 0 min 412 W/m 0,0 km/h (0 Bft) 100,00 %
07.09.2019 14:58 19,8 C 25,6 C 16,7 C 73 % 1018,4 hPa 0,0 l/m 2 min 0 min 547 W/m 3,2 km/h (1 Bft) 100,00 %
07.09.2019 15:00 19,9 C 25,6 C 16,7 C 72 % 1018,4 hPa 0,0 l/m 2 min 0 min 666 W/m 9,7 km/h (2 Bft) 97,87 %
07.09.2019 15:02 19,9 C 26,7 C 16,7 C 72 % 1018,4 hPa 0,0 l/m 2 min 0 min 663 W/m 3,2 km/h (1 Bft) 97,87 %
07.09.2019 15:04 20,1 C 27,2 C 16,7 C 73 % 1018,4 hPa 0,0 l/m 2 min 0 min 868 W/m 3,2 km/h (1 Bft) 97,87 %
07.09.2019 15:06 20,2 C 27,8 C 17,2 C 73 % 1018,3 hPa 0,0 l/m 2 min 0 min 871 W/m 6,4 km/h (2 Bft) 97,14 %
07.09.2019 15:08 20,3 C 27,8 C 17,2 C 72 % 1018,3 hPa 0,0 l/m 2 min 0 min 868 W/m 6,4 km/h (2 Bft) 98,21 %
07.09.2019 15:10 20,4 C 27,2 C 17,2 C 72 % 1018,3 hPa 0,0 l/m 2 min 0 min 833 W/m 9,7 km/h (2 Bft) 95,74 %
07.09.2019 15:12 20,6 C 26,1 C 17,2 C 71 % 1018,3 hPa 0,0 l/m 2 min 0 min 861 W/m 6,4 km/h (2 Bft) 95,74 %
07.09.2019 15:14 20,6 C 24,4 C 16,7 C 70 % 1018,3 hPa 0,0 l/m 2 min 0 min 617 W/m 6,4 km/h (2 Bft) 93,48 %
07.09.2019 15:16 20,5 C 22,8 C 16,7 C 68 % 1018,3 hPa 0,0 l/m 0 min 0 min 306 W/m 12,9 km/h (3 Bft) 100,00 %
07.09.2019 15:18 20,5 C 22,2 C 16,7 C 68 % 1018,3 hPa 0,0 l/m 0 min 0 min 291 W/m 12,9 km/h (3 Bft) 95,74 %
07.09.2019 15:20 20,4 C 21,7 C 16,7 C 67 % 1018,3 hPa 0,0 l/m 0 min 0 min 282 W/m 0,0 km/h (0 Bft) 95,74 %
07.09.2019 15:22 20,4 C 21,1 C 16,7 C 67 % 1018,3 hPa 0,0 l/m 0 min 0 min 293 W/m 6,4 km/h (2 Bft) 95,74 %
07.09.2019 15:24 20,3 C 21,7 C 17,2 C 67 % 1018,3 hPa 0,0 l/m 0 min 0 min 306 W/m 0,0 km/h (0 Bft) 95,74 %
07.09.2019 15:26 20,3 C 22,8 C 18,3 C 69 % 1018,3 hPa 0,0 l/m 2 min 0 min 309 W/m 0,0 km/h (0 Bft) 95,65 %
07.09.2019 15:28 20,2 C 22,2 C 18,9 C 70 % 1018,3 hPa 0,0 l/m 0 min 0 min 294 W/m 6,4 km/h (2 Bft) 97,87 %
07.09.2019 15:30 20,2 C 21,7 C 18,9 C 67 % 1018,2 hPa 0,0 l/m 0 min 0 min 284 W/m 9,7 km/h (2 Bft) 95,74 %
07.09.2019 15:32 20,1 C 22,2 C 18,9 C 67 % 1018,1 hPa 0,0 l/m 2 min 0 min 315 W/m 6,4 km/h (2 Bft) 95,74 %
07.09.2019 15:34 20,0 C 23,3 C 18,9 C 67 % 1018,2 hPa 0,0 l/m 2 min 0 min 336 W/m 6,4 km/h (2 Bft) 95,74 %
07.09.2019 15:36 20,0 C 24,4 C 18,9 C 67 % 1018,2 hPa 0,0 l/m 2 min 0 min 336 W/m 9,7 km/h (2 Bft) 95,74 %
07.09.2019 15:38 20,1 C 24,4 C 19,4 C 68 % 1018,2 hPa 0,0 l/m 2 min 0 min 336 W/m 3,2 km/h (1 Bft) 95,65 %
07.09.2019 15:40 20,1 C 24,4 C 18,9 C 68 % 1018,1 hPa 0,0 l/m 2 min 0 min 341 W/m 0,0 km/h (0 Bft) 93,62 %
07.09.2019 15:42 20,1 C 23,3 C 18,9 C 69 % 1018,1 hPa 0,0 l/m 2 min 0 min 341 W/m 9,7 km/h (2 Bft) 95,74 %
07.09.2019 15:44 20,1 C 22,8 C 18,3 C 66 % 1018,0 hPa 0,0 l/m 2 min 0 min 341 W/m 12,9 km/h (3 Bft) 95,74 %
07.09.2019 15:46 20,1 C 21,7 C 18,3 C 66 % 1018,0 hPa 0,0 l/m 0 min 0 min 215 W/m 3,2 km/h (1 Bft) 95,74 %
07.09.2019 15:48 20,1 C 20,6 C 18,3 C 67 % 1018,0 hPa 0,0 l/m 0 min 0 min 136 W/m 3,2 km/h (1 Bft) 95,74 %
07.09.2019 15:50 20,0 C 20,0 C 17,8 C 67 % 1018,0 hPa 0,0 l/m 0 min 0 min 122 W/m 6,4 km/h (2 Bft) 93,48 %
07.09.2019 15:52 19,9 C 18,9 C 17,8 C 67 % 1018,0 hPa 0,0 l/m 0 min 0 min 117 W/m 3,2 km/h (1 Bft) 95,74 %
07.09.2019 15:54 19,8 C 18,9 C 17,8 C 67 % 1018,0 hPa 0,0 l/m 0 min 0 min 115 W/m 3,2 km/h (1 Bft) 95,74 %
07.09.2019 15:56 19,7 C 18,9 C 17,2 C 67 % 1018,1 hPa 0,0 l/m 0 min 0 min 118 W/m 6,4 km/h (2 Bft) 93,62 %
07.09.2019 15:58 19,7 C 18,3 C 17,2 C 68 % 1018,1 hPa 0,0 l/m 0 min 0 min 116 W/m 6,4 km/h (2 Bft) 93,62 %
07.09.2019 16:00 19,6 C 18,3 C 17,2 C 68 % 1018,1 hPa 0,0 l/m 0 min 0 min 122 W/m 12,9 km/h (3 Bft) 95,65 %
07.09.2019 16:02 19,6 C 18,3 C 17,2 C 69 % 1018,1 hPa 0,0 l/m 0 min 0 min 137 W/m 0,0 km/h (0 Bft) 95,74 %
07.09.2019 16:04 19,5 C 18,9 C 17,8 C 70 % 1018,0 hPa 0,0 l/m 0 min 0 min 145 W/m 0,0 km/h (0 Bft) 97,87 %
07.09.2019 16:06 19,4 C 18,9 C 17,8 C 70 % 1018,0 hPa 0,0 l/m 0 min 0 min 149 W/m 3,2 km/h (1 Bft) 97,87 %
07.09.2019 16:08 19,4 C 18,9 C 17,8 C 70 % 1017,9 hPa 0,0 l/m 0 min 0 min 149 W/m 3,2 km/h (1 Bft) 100,00 %
07.09.2019 16:10 19,3 C 18,9 C 17,8 C 70 % 1018,0 hPa 0,0 l/m 0 min 0 min 157 W/m 3,2 km/h (1 Bft) 100,00 %
07.09.2019 16:12 19,3 C 18,9 C 17,8 C 70 % 1018,0 hPa 0,0 l/m 0 min 0 min 162 W/m 9,7 km/h (2 Bft) 97,83 %
07.09.2019 16:14 19,2 C 18,9 C 17,8 C 69 % 1018,0 hPa 0,0 l/m 0 min 0 min 161 W/m 12,9 km/h (3 Bft) 100,00 %
07.09.2019 16:16 19,2 C 18,9 C 17,8 C 69 % 1018,0 hPa 0,0 l/m 0 min 0 min 162 W/m 6,4 km/h (2 Bft) 97,87 %
07.09.2019 16:18 19,2 C 18,9 C 17,8 C 70 % 1018,0 hPa 0,0 l/m 0 min 0 min 159 W/m 3,2 km/h (1 Bft) 97,87 %
07.09.2019 16:20 19,1 C 18,9 C 17,8 C 70 % 1018,0 hPa 0,0 l/m 0 min 0 min 137 W/m 0,0 km/h (0 Bft) 100,00 %
07.09.2019 16:22 19,1 C 18,9 C 17,8 C 70 % 1018,0 hPa 0,0 l/m 0 min 0 min 112 W/m 9,7 km/h (2 Bft) 100,00 %
07.09.2019 16:24 19,0 C 18,3 C 17,8 C 70 % 1018,0 hPa 0,0 l/m 0 min 0 min 98 W/m 9,7 km/h (2 Bft) 97,87 %
07.09.2019 16:26 18,9 C 18,3 C 17,2 C 70 % 1017,9 hPa 0,0 l/m 0 min 0 min 103 W/m 9,7 km/h (2 Bft) 100,00 %
07.09.2019 16:28 18,8 C 17,8 C 17,2 C 70 % 1018,1 hPa 0,0 l/m 0 min 0 min 107 W/m 12,9 km/h (3 Bft) 100,00 %
07.09.2019 16:30 18,7 C 17,8 C 17,2 C 70 % 1018,2 hPa 0,0 l/m 0 min 0 min 106 W/m 9,7 km/h (2 Bft) 100,00 %
07.09.2019 16:32 18,6 C 17,8 C 17,2 C 70 % 1018,2 hPa 0,0 l/m 0 min 0 min 107 W/m 9,7 km/h (2 Bft) 97,87 %
07.09.2019 16:34 18,5 C 17,8 C 17,2 C 70 % 1018,2 hPa 0,0 l/m 0 min 0 min 112 W/m 9,7 km/h (2 Bft) 100,00 %
07.09.2019 16:36 18,4 C 17,8 C 17,2 C 71 % 1018,2 hPa 0,0 l/m 0 min 0 min 118 W/m 6,4 km/h (2 Bft) 97,92 %
07.09.2019 16:38 18,3 C 17,8 C 17,2 C 70 % 1018,2 hPa 0,0 l/m 0 min 0 min 126 W/m 6,4 km/h (2 Bft) 97,83 %
07.09.2019 16:40 18,3 C 17,8 C 17,2 C 71 % 1018,2 hPa 0,0 l/m 0 min 0 min 128 W/m 6,4 km/h (2 Bft) 97,87 %
07.09.2019 16:42 18,2 C 17,8 C 17,2 C 71 % 1018,3 hPa 0,0 l/m 0 min 0 min 119 W/m 12,9 km/h (3 Bft) 95,74 %
07.09.2019 16:44 18,1 C 17,8 C 17,2 C 70 % 1018,2 hPa 0,0 l/m 0 min 0 min 114 W/m 6,4 km/h (2 Bft) 97,87 %
07.09.2019 16:46 18,1 C 17,8 C 17,2 C 70 % 1018,2 hPa 0,0 l/m 0 min 0 min 117 W/m 3,2 km/h (1 Bft) 95,65 %
07.09.2019 16:48 18,1 C 17,2 C 17,2 C 71 % 1018,2 hPa 0,0 l/m 0 min 0 min 109 W/m 6,4 km/h (2 Bft) 95,74 %
07.09.2019 16:50 18,0 C 17,2 C 17,2 C 71 % 1018,3 hPa 0,0 l/m 0 min 0 min 97 W/m 9,7 km/h (2 Bft) 97,87 %
07.09.2019 16:52 17,9 C 17,2 C 16,7 C 71 % 1018,2 hPa 0,0 l/m 0 min 0 min 91 W/m 6,4 km/h (2 Bft) 97,87 %
07.09.2019 16:54 17,9 C 17,2 C 16,7 C 71 % 1018,3 hPa 0,0 l/m 0 min 0 min 90 W/m 6,4 km/h (2 Bft) 97,87 %
07.09.2019 16:56 17,9 C 17,2 C 16,7 C 71 % 1018,3 hPa 0,0 l/m 0 min 0 min 94 W/m 6,4 km/h (2 Bft) 95,74 %
07.09.2019 16:58 17,9 C 17,8 C 16,7 C 71 % 1018,3 hPa 0,0 l/m 0 min 0 min 116 W/m 6,4 km/h (2 Bft) 97,14 %
07.09.2019 17:00 17,8 C 18,3 C 17,2 C 71 % 1018,3 hPa 0,0 l/m 0 min 0 min 165 W/m 9,7 km/h (2 Bft) 93,62 %
07.09.2019 17:02 17,8 C 18,3 C 17,2 C 71 % 1018,4 hPa 0,0 l/m 2 min 0 min 229 W/m 12,9 km/h (3 Bft) 97,87 %
07.09.2019 17:04 17,9 C 18,3 C 17,2 C 71 % 1018,4 hPa 0,0 l/m 0 min 0 min 154 W/m 9,7 km/h (2 Bft) 97,87 %
07.09.2019 17:06 17,9 C 18,3 C 17,2 C 71 % 1018,4 hPa 0,0 l/m 0 min 0 min 173 W/m 3,2 km/h (1 Bft) 97,83 %
07.09.2019 17:08 17,9 C 18,9 C 17,2 C 71 % 1018,4 hPa 0,0 l/m 0 min 0 min 173 W/m 3,2 km/h (1 Bft) 97,87 %
07.09.2019 17:10 17,9 C 18,9 C 17,8 C 72 % 1018,5 hPa 0,0 l/m 0 min 0 min 147 W/m 0,0 km/h (0 Bft) 97,87 %
07.09.2019 17:12 17,9 C 18,3 C 17,2 C 72 % 1018,5 hPa 0,0 l/m 0 min 0 min 118 W/m 9,7 km/h (2 Bft) 97,87 %
07.09.2019 17:14 17,9 C 18,3 C 17,2 C 72 % 1018,5 hPa 0,0 l/m 0 min 0 min 119 W/m 6,4 km/h (2 Bft) 97,87 %
07.09.2019 17:16 18,0 C 18,3 C 17,2 C 72 % 1018,5 hPa 0,0 l/m 0 min 0 min 159 W/m 16,1 km/h (3 Bft) 95,74 %
07.09.2019 17:18 18,0 C 18,3 C 17,2 C 72 % 1018,5 hPa 0,0 l/m 0 min 0 min 175 W/m 3,2 km/h (1 Bft) 97,83 %
07.09.2019 17:20 18,0 C 18,9 C 17,2 C 72 % 1018,5 hPa 0,0 l/m 0 min 0 min 182 W/m 3,2 km/h (1 Bft) 97,87 %
07.09.2019 17:22 18,1 C 19,4 C 17,2 C 72 % 1018,5 hPa 0,0 l/m 2 min 0 min 228 W/m 3,2 km/h (1 Bft) 97,87 %
07.09.2019 17:24 18,1 C 19,4 C 17,8 C 72 % 1018,6 hPa 0,0 l/m 2 min 0 min 297 W/m 3,2 km/h (1 Bft) 97,87 %
07.09.2019 17:26 18,1 C 20,6 C 17,8 C 72 % 1018,5 hPa 0,0 l/m 2 min 0 min 326 W/m 6,4 km/h (2 Bft) 97,87 %
07.09.2019 17:28 18,2 C 22,2 C 17,8 C 73 % 1018,6 hPa 0,0 l/m 2 min 0 min 451 W/m 3,2 km/h (1 Bft) 97,87 %
07.09.2019 17:30 18,3 C 23,3 C 18,3 C 73 % 1018,5 hPa 0,0 l/m 2 min 0 min 489 W/m 0,0 km/h (0 Bft) 97,83 %
07.09.2019 17:32 18,4 C 23,9 C 18,3 C 72 % 1018,5 hPa 0,0 l/m 2 min 0 min 488 W/m 3,2 km/h (1 Bft) 97,87 %
07.09.2019 17:34 18,5 C 21,7 C 18,3 C 71 % 1018,5 hPa 0,0 l/m 2 min 0 min 451 W/m 12,9 km/h (3 Bft) 97,87 %
07.09.2019 17:36 18,6 C 21,7 C 18,3 C 70 % 1018,5 hPa 0,0 l/m 2 min 0 min 245 W/m 9,7 km/h (2 Bft) 97,87 %
07.09.2019 17:38 18,6 C 20,6 C 18,3 C 69 % 1018,5 hPa 0,0 l/m 2 min 0 min 246 W/m 6,4 km/h (2 Bft) 100,00 %
07.09.2019 17:40 18,7 C 20,6 C 17,8 C 69 % 1018,5 hPa 0,0 l/m 2 min 0 min 187 W/m 9,7 km/h (2 Bft) 97,83 %
07.09.2019 17:42 18,7 C 21,1 C 17,8 C 69 % 1018,5 hPa 0,0 l/m 2 min 0 min 275 W/m 9,7 km/h (2 Bft) 97,87 %
07.09.2019 17:44 18,8 C 21,7 C 17,8 C 69 % 1018,5 hPa 0,0 l/m 2 min 0 min 286 W/m 9,7 km/h (2 Bft) 97,87 %
07.09.2019 17:46 18,8 C 22,2 C 17,8 C 69 % 1018,5 hPa 0,0 l/m 2 min 0 min 352 W/m 3,2 km/h (1 Bft) 100,00 %
07.09.2019 17:48 18,9 C 21,7 C 17,8 C 70 % 1018,4 hPa 0,0 l/m 2 min 0 min 334 W/m 9,7 km/h (2 Bft) 100,00 %
07.09.2019 17:50 18,9 C 20,6 C 17,8 C 67 % 1018,4 hPa 0,0 l/m 2 min 0 min 235 W/m 16,1 km/h (3 Bft) 100,00 %
07.09.2019 17:52 18,9 C 20,6 C 17,8 C 67 % 1018,4 hPa 0,0 l/m 0 min 0 min 150 W/m 6,4 km/h (2 Bft) 95,65 %
07.09.2019 17:54 18,9 C 20,6 C 17,8 C 68 % 1018,4 hPa 0,0 l/m 2 min 0 min 288 W/m 3,2 km/h (1 Bft) 100,00 %
07.09.2019 17:56 18,9 C 21,1 C 17,8 C 69 % 1018,4 hPa 0,0 l/m 2 min 0 min 257 W/m 3,2 km/h (1 Bft) 97,87 %
07.09.2019 17:58 18,9 C 21,7 C 17,2 C 67 % 1018,4 hPa 0,0 l/m 2 min 0 min 318 W/m 9,7 km/h (2 Bft) 100,00 %
07.09.2019 18:00 18,9 C 22,2 C 17,2 C 67 % 1018,4 hPa 0,0 l/m 2 min 0 min 350 W/m 0,0 km/h (0 Bft) 97,87 %
07.09.2019 18:02 18,9 C 20,6 C 17,2 C 68 % 1018,5 hPa 0,0 l/m 2 min 0 min 172 W/m 6,4 km/h (2 Bft) 95,74 %
07.09.2019 18:04 18,9 C 20,0 C 17,2 C 68 % 1018,5 hPa 0,0 l/m 0 min 0 min 108 W/m 12,9 km/h (3 Bft) 97,83 %
07.09.2019 18:08 18,8 C 18,9 C 16,7 C 67 % 1018,5 hPa 0,0 l/m 0 min 0 min 103 W/m 9,7 km/h (2 Bft) 97,87 %
07.09.2019 18:10 18,8 C 18,3 C 16,7 C 67 % 1018,5 hPa 0,0 l/m 0 min 0 min 104 W/m 3,2 km/h (1 Bft) 97,87 %
07.09.2019 18:12 18,7 C 18,3 C 16,7 C 68 % 1018,6 hPa 0,0 l/m 0 min 0 min 104 W/m 0,0 km/h (0 Bft) 95,74 %
07.09.2019 18:14 18,7 C 18,3 C 16,7 C 68 % 1018,6 hPa 0,0 l/m 0 min 0 min 107 W/m 0,0 km/h (0 Bft) 97,87 %
07.09.2019 18:16 18,6 C 18,3 C 16,7 C 67 % 1018,6 hPa 0,0 l/m 0 min 0 min 109 W/m 6,4 km/h (2 Bft) 95,65 %
07.09.2019 18:18 18,6 C 17,8 C 16,7 C 68 % 1018,5 hPa 0,0 l/m 0 min 0 min 100 W/m 3,2 km/h (1 Bft) 95,74 %
07.09.2019 18:20 18,5 C 17,8 C 16,7 C 68 % 1018,4 hPa 0,0 l/m 0 min 0 min 92 W/m 16,1 km/h (3 Bft) 95,74 %
07.09.2019 18:22 18,4 C 17,8 C 16,7 C 67 % 1018,5 hPa 0,0 l/m 0 min 0 min 83 W/m 9,7 km/h (2 Bft) 97,87 %
07.09.2019 18:24 18,4 C 17,8 C 16,7 C 67 % 1018,5 hPa 0,0 l/m 0 min 0 min 83 W/m 9,7 km/h (2 Bft) 93,62 %
07.09.2019 18:26 18,3 C 17,2 C 16,7 C 67 % 1018,5 hPa 0,0 l/m 0 min 0 min 77 W/m 9,7 km/h (2 Bft) 93,62 %
07.09.2019 18:28 18,3 C 17,2 C 16,1 C 68 % 1018,5 hPa 0,0 l/m 0 min 0 min 74 W/m 3,2 km/h (1 Bft) 95,65 %
07.09.2019 18:30 18,2 C 17,2 C 16,1 C 68 % 1018,5 hPa 0,0 l/m 0 min 0 min 73 W/m 3,2 km/h (1 Bft) 97,87 %
07.09.2019 18:32 18,2 C 17,2 C 16,1 C 68 % 1018,6 hPa 0,0 l/m 0 min 0 min 73 W/m 9,7 km/h (2 Bft) 97,87 %
07.09.2019 18:34 18,1 C 16,7 C 16,1 C 69 % 1018,5 hPa 0,0 l/m 0 min 0 min 71 W/m 0,0 km/h (0 Bft) 95,74 %
07.09.2019 18:36 18,0 C 16,7 C 16,1 C 69 % 1018,5 hPa 0,0 l/m 0 min 0 min 68 W/m 3,2 km/h (1 Bft) 95,74 %
07.09.2019 18:38 17,9 C 16,7 C 16,1 C 69 % 1018,4 hPa 0,0 l/m 0 min 0 min 67 W/m 0,0 km/h (0 Bft) 93,62 %
07.09.2019 18:40 17,9 C 16,7 C 15,6 C 69 % 1018,4 hPa 0,0 l/m 0 min 0 min 64 W/m 3,2 km/h (1 Bft) 95,65 %
07.09.2019 18:42 17,8 C 16,7 C 15,6 C 69 % 1018,6 hPa 0,0 l/m 0 min 0 min 60 W/m 3,2 km/h (1 Bft) 93,62 %
07.09.2019 18:44 17,8 C 16,7 C 15,6 C 69 % 1018,6 hPa 0,0 l/m 0 min 0 min 54 W/m 6,4 km/h (2 Bft) 95,74 %
07.09.2019 18:46 17,8 C 16,7 C 15,6 C 69 % 1018,6 hPa 0,0 l/m 0 min 0 min 53 W/m 3,2 km/h (1 Bft) 97,87 %
07.09.2019 18:48 17,7 C 16,1 C 15,6 C 69 % 1018,6 hPa 0,0 l/m 0 min 0 min 53 W/m 0,0 km/h (0 Bft) 97,87 %
07.09.2019 18:50 17,7 C 16,1 C 15,6 C 69 % 1018,6 hPa 0,0 l/m 0 min 0 min 54 W/m 3,2 km/h (1 Bft) 97,87 %
07.09.2019 18:52 17,6 C 16,1 C 15,6 C 69 % 1018,6 hPa 0,0 l/m 0 min 0 min 53 W/m 0,0 km/h (0 Bft) 97,83 %
07.09.2019 18:54 17,6 C 16,1 C 15,6 C 69 % 1018,6 hPa 0,0 l/m 0 min 0 min 51 W/m 0,0 km/h (0 Bft) 95,74 %
07.09.2019 18:56 17,5 C 16,1 C 15,6 C 69 % 1018,7 hPa 0,0 l/m 0 min 0 min 48 W/m 3,2 km/h (1 Bft) 97,87 %
07.09.2019 18:58 17,4 C 16,1 C 15,6 C 69 % 1018,7 hPa 0,0 l/m 0 min 0 min 46 W/m 0,0 km/h (0 Bft) 97,87 %
07.09.2019 19:00 17,4 C 16,1 C 15,6 C 68 % 1018,7 hPa 0,0 l/m 0 min 0 min 44 W/m 0,0 km/h (0 Bft) 95,74 %
07.09.2019 19:02 17,4 C 16,1 C 15,6 C 69 % 1018,7 hPa 0,0 l/m 0 min 0 min 42 W/m 0,0 km/h (0 Bft) 95,65 %
07.09.2019 19:04 17,3 C 16,1 C 15,6 C 69 % 1018,7 hPa 0,0 l/m 0 min 0 min 42 W/m 6,4 km/h (2 Bft) 97,87 %
07.09.2019 19:06 17,3 C 16,1 C 16,1 C 68 % 1018,7 hPa 0,0 l/m 0 min 0 min 42 W/m 6,4 km/h (2 Bft) 97,87 %
07.09.2019 19:08 17,2 C 16,1 C 16,1 C 68 % 1018,7 hPa 0,0 l/m 0 min 0 min 41 W/m 0,0 km/h (0 Bft) 97,87 %
07.09.2019 19:10 17,2 C 16,1 C 16,1 C 68 % 1018,7 hPa 0,0 l/m 0 min 0 min 38 W/m 0,0 km/h (0 Bft) 97,87 %
07.09.2019 19:12 17,2 C 16,1 C 16,1 C 69 % 1018,7 hPa 0,0 l/m 0 min 0 min 35 W/m 3,2 km/h (1 Bft) 91,49 %
07.09.2019 19:14 17,2 C 16,1 C 15,6 C 69 % 1018,6 hPa 0,0 l/m 0 min 0 min 33 W/m 0,0 km/h (0 Bft) 97,83 %
07.09.2019 19:16 17,1 C 16,1 C 15,6 C 69 % 1018,7 hPa 0,0 l/m 0 min 0 min 31 W/m 0,0 km/h (0 Bft) 97,87 %
07.09.2019 19:18 17,1 C 16,1 C 15,6 C 69 % 1018,7 hPa 0,0 l/m 0 min 0 min 28 W/m 0,0 km/h (0 Bft) 97,87 %
07.09.2019 19:20 17,1 C 16,1 C 15,6 C 69 % 1018,7 hPa 0,0 l/m 0 min 0 min 27 W/m 0,0 km/h (0 Bft) 97,87 %
07.09.2019 19:22 17,1 C 16,1 C 15,6 C 69 % 1018,7 hPa 0,0 l/m 0 min 0 min 25 W/m 0,0 km/h (0 Bft) 100,00 %
07.09.2019 19:24 17,1 C 16,1 C 15,6 C 68 % 1018,8 hPa 0,0 l/m 0 min 0 min 24 W/m 0,0 km/h (0 Bft) 100,00 %
07.09.2019 19:26 17,0 C 16,1 C 15,6 C 69 % 1018,8 hPa 0,0 l/m 0 min 0 min 23 W/m 0,0 km/h (0 Bft) 100,00 %
07.09.2019 19:28 17,0 C 16,1 C 15,6 C 69 % 1018,8 hPa 0,0 l/m 0 min 0 min 23 W/m 0,0 km/h (0 Bft) 100,00 %
07.09.2019 19:30 17,0 C 16,1 C 15,6 C 69 % 1018,7 hPa 0,0 l/m 0 min 0 min 23 W/m 0,0 km/h (0 Bft) 100,00 %
07.09.2019 19:32 17,0 C 16,1 C 15,6 C 70 % 1018,7 hPa 0,0 l/m 0 min 0 min 21 W/m 6,4 km/h (2 Bft) 100,00 %
07.09.2019 19:34 17,0 C 16,1 C 15,6 C 69 % 1018,8 hPa 0,0 l/m 0 min 0 min 21 W/m 3,2 km/h (1 Bft) 100,00 %
07.09.2019 19:36 16,9 C 16,1 C 15,6 C 69 % 1018,7 hPa 0,0 l/m 0 min 0 min 20 W/m 3,2 km/h (1 Bft) 100,00 %
07.09.2019 19:38 16,9 C 16,1 C 15,6 C 70 % 1018,7 hPa 0,0 l/m 0 min 0 min 18 W/m 0,0 km/h (0 Bft) 100,00 %
07.09.2019 19:40 16,9 C 16,1 C 15,6 C 70 % 1018,7 hPa 0,0 l/m 0 min 0 min 18 W/m 0,0 km/h (0 Bft) 100,00 %
07.09.2019 19:42 16,9 C 16,1 C 15,6 C 71 % 1018,8 hPa 0,0 l/m 0 min 0 min 16 W/m 0,0 km/h (0 Bft) 100,00 %
07.09.2019 19:44 16,9 C 15,6 C 15,6 C 71 % 1018,7 hPa 0,0 l/m 0 min 0 min 14 W/m 0,0 km/h (0 Bft) 100,00 %
07.09.2019 19:46 16,9 C 15,6 C 15,6 C 71 % 1018,8 hPa 0,0 l/m 0 min 0 min 14 W/m 6,4 km/h (2 Bft) 100,00 %
07.09.2019 19:48 16,9 C 15,6 C 15,6 C 71 % 1018,8 hPa 0,0 l/m 0 min 0 min 14 W/m 0,0 km/h (0 Bft) 97,87 %
07.09.2019 19:50 16,8 C 15,6 C 15,6 C 71 % 1018,9 hPa 0,0 l/m 0 min 0 min 12 W/m 0,0 km/h (0 Bft) 100,00 %
07.09.2019 19:52 16,8 C 15,6 C 15,6 C 72 % 1018,8 hPa 0,0 l/m 0 min 0 min 12 W/m 0,0 km/h (0 Bft) 95,74 %
07.09.2019 19:53 16,8 C 15,6 C 15,6 C 71 % 1018,8 hPa 0,0 l/m 0 min 0 min 11 W/m 0,0 km/h (0 Bft) 97,87 %
07.09.2019 19:56 16,8 C 15,6 C 15,0 C 71 % 1018,8 hPa 0,0 l/m 0 min 0 min 9 W/m 3,2 km/h (1 Bft) 95,74 %
07.09.2019 19:58 16,8 C 15,6 C 15,0 C 71 % 1018,8 hPa 0,0 l/m 0 min 0 min 8 W/m 0,0 km/h (0 Bft) 97,87 %
07.09.2019 20:00 16,7 C 15,6 C 15,0 C 70 % 1018,9 hPa 0,0 l/m 0 min 0 min 6 W/m 0,0 km/h (0 Bft) 97,87 %
07.09.2019 20:02 16,7 C 15,6 C 15,0 C 70 % 1018,9 hPa 0,0 l/m 0 min 0 min 5 W/m 0,0 km/h (0 Bft) 97,83 %
07.09.2019 20:04 16,7 C 15,6 C 15,0 C 70 % 1018,9 hPa 0,0 l/m 0 min 0 min 1 W/m 9,7 km/h (2 Bft) 97,87 %
07.09.2019 20:06 16,7 C 15,0 C 15,0 C 70 % 1018,9 hPa 0,0 l/m 0 min 0 min 0 W/m 0,0 km/h (0 Bft) 97,87 %
07.09.2019 20:08 16,6 C 15,0 C 15,0 C 70 % 1018,9 hPa 0,0 l/m 0 min 0 min 0 W/m 6,4 km/h (2 Bft) 97,87 %
07.09.2019 20:10 16,6 C 15,0 C 15,0 C 71 % 1019,0 hPa 0,0 l/m 0 min 0 min 0 W/m 0,0 km/h (0 Bft) 97,87 %
07.09.2019 20:12 16,6 C 15,0 C 15,0 C 71 % 1019,0 hPa 0,0 l/m 0 min 0 min 0 W/m 0,0 km/h (0 Bft) 97,83 %
07.09.2019 20:14 16,6 C 15,0 C 15,0 C 71 % 1019,0 hPa 0,0 l/m 0 min 0 min 0 W/m 0,0 km/h (0 Bft) 97,87 %
07.09.2019 20:16 16,5 C 15,0 C 14,4 C 72 % 1019,0 hPa 0,0 l/m 0 min 0 min 0 W/m 0,0 km/h (0 Bft) 97,87 %
07.09.2019 20:18 16,5 C 15,0 C 14,4 C 72 % 1019,0 hPa 0,0 l/m 0 min 0 min 0 W/m 0,0 km/h (0 Bft) 97,87 %
07.09.2019 20:20 16,4 C 15,0 C 14,4 C 72 % 1019,0 hPa 0,0 l/m 0 min 0 min 0 W/m 9,7 km/h (2 Bft) 95,74 %
07.09.2019 20:22 16,4 C 14,4 C 14,4 C 72 % 1019,0 hPa 0,0 l/m 0 min 0 min 0 W/m 0,0 km/h (0 Bft) 97,87 %
07.09.2019 20:24 16,4 C 14,4 C 14,4 C 72 % 1019,0 hPa 0,0 l/m 0 min 0 min 0 W/m 0,0 km/h (0 Bft) 97,83 %
07.09.2019 20:26 16,4 C 14,4 C 14,4 C 72 % 1019,1 hPa 0,0 l/m 0 min 0 min 0 W/m 0,0 km/h (0 Bft) 97,87 %
07.09.2019 20:28 16,4 C 14,4 C 14,4 C 73 % 1019,0 hPa 0,0 l/m 0 min 0 min 0 W/m 0,0 km/h (0 Bft) 97,87 %
07.09.2019 20:30 16,3 C 14,4 C 14,4 C 73 % 1019,0 hPa 0,0 l/m 0 min 0 min 0 W/m 0,0 km/h (0 Bft) 97,87 %
07.09.2019 20:32 16,3 C 14,4 C 13,9 C 74 % 1019,0 hPa 0,0 l/m 0 min 0 min 0 W/m 0,0 km/h (0 Bft) 97,87 %
07.09.2019 20:34 16,3 C 14,4 C 13,9 C 74 % 1019,1 hPa 0,0 l/m 0 min 0 min 0 W/m 0,0 km/h (0 Bft) 97,87 %
07.09.2019 20:36 16,2 C 14,4 C 13,9 C 74 % 1019,1 hPa 0,0 l/m 0 min 0 min 0 W/m 0,0 km/h (0 Bft) 100,00 %
07.09.2019 20:38 16,2 C 13,9 C 13,9 C 74 % 1019,1 hPa 0,0 l/m 0 min 0 min 0 W/m 0,0 km/h (0 Bft) 97,87 %
07.09.2019 20:40 16,2 C 13,9 C 13,9 C 74 % 1019,2 hPa 0,0 l/m 0 min 0 min 0 W/m 0,0 km/h (0 Bft) 97,87 %
07.09.2019 20:42 16,1 C 13,9 C 13,9 C 74 % 1019,2 hPa 0,0 l/m 0 min 0 min 0 W/m 0,0 km/h (0 Bft) 97,87 %
07.09.2019 20:44 16,1 C 13,9 C 13,9 C 74 % 1019,2 hPa 0,0 l/m 0 min 0 min 0 W/m 3,2 km/h (1 Bft) 95,74 %
07.09.2019 20:46 16,1 C 13,9 C 13,9 C 75 % 1019,2 hPa 0,0 l/m 0 min 0 min 0 W/m 0,0 km/h (0 Bft) 97,87 %
07.09.2019 20:48 16,0 C 13,9 C 13,9 C 75 % 1019,2 hPa 0,0 l/m 0 min 0 min 0 W/m 0,0 km/h (0 Bft) 95,65 %
07.09.2019 20:50 15,9 C 13,9 C 13,9 C 76 % 1019,3 hPa 0,0 l/m 0 min 0 min 0 W/m 0,0 km/h (0 Bft) 95,74 %
07.09.2019 20:52 15,9 C 13,9 C 13,9 C 76 % 1019,4 hPa 0,0 l/m 0 min 0 min 0 W/m 0,0 km/h (0 Bft) 95,74 %
07.09.2019 20:54 15,9 C 13,9 C 13,9 C 76 % 1019,4 hPa 0,0 l/m 0 min 0 min 0 W/m 3,2 km/h (1 Bft) 95,74 %
07.09.2019 20:56 15,8 C 13,9 C 13,9 C 76 % 1019,3 hPa 0,0 l/m 0 min 0 min 0 W/m 0,0 km/h (0 Bft) 91,49 %
07.09.2019 20:58 15,8 C 13,9 C 13,9 C 76 % 1019,4 hPa 0,0 l/m 0 min 0 min 0 W/m 6,4 km/h (2 Bft) 97,83 %
07.09.2019 21:00 15,7 C 13,9 C 13,9 C 77 % 1019,5 hPa 0,0 l/m 0 min 0 min 0 W/m 0,0 km/h (0 Bft) 95,74 %
07.09.2019 21:02 15,7 C 13,9 C 13,9 C 77 % 1019,5 hPa 0,0 l/m 0 min 0 min 0 W/m 0,0 km/h (0 Bft) 95,74 %
07.09.2019 21:04 15,6 C 13,9 C 13,9 C 77 % 1019,5 hPa 0,0 l/m 0 min 0 min 0 W/m 0,0 km/h (0 Bft) 93,62 %
07.09.2019 21:06 15,6 C 13,9 C 13,9 C 77 % 1019,5 hPa 0,0 l/m 0 min 0 min 0 W/m 0,0 km/h (0 Bft) 95,74 %
07.09.2019 21:08 15,5 C 13,9 C 13,3 C 77 % 1019,5 hPa 0,0 l/m 0 min 0 min 0 W/m 0,0 km/h (0 Bft) 97,87 %
07.09.2019 21:10 15,5 C 13,3 C 13,3 C 77 % 1019,5 hPa 0,0 l/m 0 min 0 min 0 W/m 3,2 km/h (1 Bft) 95,65 %
07.09.2019 21:12 15,4 C 13,3 C 13,3 C 77 % 1019,6 hPa 0,0 l/m 0 min 0 min 0 W/m 0,0 km/h (0 Bft) 95,74 %
07.09.2019 21:14 15,4 C 13,3 C 13,3 C 77 % 1019,6 hPa 0,0 l/m 0 min 0 min 0 W/m 0,0 km/h (0 Bft) 93,62 %
07.09.2019 21:16 15,4 C 13,3 C 13,3 C 78 % 1019,6 hPa 0,0 l/m 0 min 0 min 0 W/m 0,0 km/h (0 Bft) 93,62 %
07.09.2019 21:18 15,3 C 13,3 C 13,3 C 78 % 1019,6 hPa 0,0 l/m 0 min 0 min 0 W/m 0,0 km/h (0 Bft) 95,74 %
07.09.2019 21:20 15,3 C 13,3 C 13,3 C 78 % 1019,6 hPa 0,0 l/m 0 min 0 min 0 W/m 0,0 km/h (0 Bft) 95,74 %
07.09.2019 21:22 15,2 C 13,3 C 13,3 C 78 % 1019,6 hPa 0,0 l/m 0 min 0 min 0 W/m 0,0 km/h (0 Bft) 95,65 %
07.09.2019 21:24 15,2 C 13,3 C 13,3 C 78 % 1019,6 hPa 0,0 l/m 0 min 0 min 0 W/m 0,0 km/h (0 Bft) 95,74 %
07.09.2019 21:26 15,2 C 13,3 C 13,3 C 78 % 1019,7 hPa 0,0 l/m 0 min 0 min 0 W/m 0,0 km/h (0 Bft) 91,49 %
07.09.2019 21:28 15,1 C 13,3 C 13,3 C 79 % 1019,7 hPa 0,0 l/m 0 min 0 min 0 W/m 0,0 km/h (0 Bft) 93,62 %
07.09.2019 21:30 15,1 C 13,3 C 13,3 C 79 % 1019,7 hPa 0,0 l/m 0 min 0 min 0 W/m 0,0 km/h (0 Bft) 93,62 %
07.09.2019 21:32 15,1 C 13,3 C 13,3 C 79 % 1019,7 hPa 0,0 l/m 0 min 0 min 0 W/m 0,0 km/h (0 Bft) 91,49 %
07.09.2019 21:34 15,0 C 13,3 C 13,3 C 79 % 1019,7 hPa 0,0 l/m 0 min 0 min 0 W/m 0,0 km/h (0 Bft) 97,83 %
07.09.2019 21:36 14,9 C 13,3 C 13,3 C 79 % 1019,7 hPa 0,0 l/m 0 min 0 min 0 W/m 0,0 km/h (0 Bft) 95,74 %
07.09.2019 21:38 14,9 C 13,3 C 13,3 C 79 % 1019,7 hPa 0,0 l/m 0 min 0 min 0 W/m 0,0 km/h (0 Bft) 95,74 %
07.09.2019 21:40 14,9 C 13,3 C 13,3 C 80 % 1019,8 hPa 0,0 l/m 0 min 0 min 0 W/m 0,0 km/h (0 Bft) 95,74 %
07.09.2019 21:42 14,9 C 13,3 C 13,3 C 80 % 1019,8 hPa 0,0 l/m 0 min 0 min 0 W/m 0,0 km/h (0 Bft) 97,87 %
07.09.2019 21:44 14,8 C 13,3 C 13,3 C 80 % 1019,7 hPa 0,0 l/m 0 min 0 min 0 W/m 0,0 km/h (0 Bft) 95,65 %
07.09.2019 21:46 14,8 C 13,3 C 13,3 C 80 % 1019,8 hPa 0,0 l/m 0 min 0 min 0 W/m 0,0 km/h (0 Bft) 97,87 %
07.09.2019 21:48 14,8 C 13,3 C 13,3 C 80 % 1019,8 hPa 0,0 l/m 0 min 0 min 0 W/m 0,0 km/h (0 Bft) 95,74 %
07.09.2019 21:50 14,8 C 13,3 C 13,3 C 81 % 1019,8 hPa 0,0 l/m 0 min 0 min 0 W/m 0,0 km/h (0 Bft) 97,87 %
07.09.2019 21:52 14,7 C 13,3 C 13,3 C 81 % 1019,8 hPa 0,0 l/m 0 min 0 min 0 W/m 0,0 km/h (0 Bft) 95,74 %
07.09.2019 21:54 14,7 C 13,3 C 13,3 C 81 % 1019,8 hPa 0,0 l/m 0 min 0 min 0 W/m 0,0 km/h (0 Bft) 97,87 %
07.09.2019 21:56 14,7 C 13,3 C 13,3 C 81 % 1019,8 hPa 0,0 l/m 0 min 0 min 0 W/m 0,0 km/h (0 Bft) 97,83 %
07.09.2019 21:58 14,7 C 13,3 C 13,3 C 81 % 1019,8 hPa 0,0 l/m 0 min 0 min 0 W/m 0,0 km/h (0 Bft) 100,00 %
07.09.2019 22:00 14,6 C 13,3 C 13,3 C 81 % 1019,8 hPa 0,0 l/m 0 min 0 min 0 W/m 0,0 km/h (0 Bft) 97,87 %
07.09.2019 22:02 14,6 C 13,3 C 13,3 C 82 % 1019,8 hPa 0,0 l/m 0 min 0 min 0 W/m 0,0 km/h (0 Bft) 100,00 %
07.09.2019 22:04 14,6 C 13,3 C 13,3 C 82 % 1019,8 hPa 0,0 l/m 0 min 0 min 0 W/m 0,0 km/h (0 Bft) 97,87 %
07.09.2019 22:06 14,5 C 13,3 C 13,3 C 82 % 1019,7 hPa 0,0 l/m 0 min 0 min 0 W/m 0,0 km/h (0 Bft) 100,00 %
07.09.2019 22:08 14,5 C 13,3 C 13,3 C 82 % 1019,7 hPa 0,0 l/m 0 min 0 min 0 W/m 0,0 km/h (0 Bft) 100,00 %
07.09.2019 22:10 14,5 C 13,3 C 12,8 C 82 % 1019,8 hPa 0,0 l/m 0 min 0 min 0 W/m 0,0 km/h (0 Bft) 97,87 %
07.09.2019 22:12 14,4 C 13,3 C 12,8 C 82 % 1019,9 hPa 0,0 l/m 0 min 0 min 0 W/m 0,0 km/h (0 Bft) 100,00 %
07.09.2019 22:14 14,4 C 13,3 C 12,8 C 82 % 1019,8 hPa 0,0 l/m 0 min 0 min 0 W/m 0,0 km/h (0 Bft) 100,00 %
07.09.2019 22:16 14,4 C 13,3 C 12,8 C 83 % 1019,8 hPa 0,0 l/m 0 min 0 min 0 W/m 0,0 km/h (0 Bft) 100,00 %
07.09.2019 22:18 14,4 C 13,3 C 12,8 C 83 % 1019,9 hPa 0,0 l/m 0 min 0 min 0 W/m 0,0 km/h (0 Bft) 100,00 %
07.09.2019 22:20 14,4 C 13,3 C 12,8 C 82 % 1019,8 hPa 0,0 l/m 0 min 0 min 0 W/m 0,0 km/h (0 Bft) 97,83 %
07.09.2019 22:22 14,4 C 13,3 C 12,8 C 83 % 1019,8 hPa 0,0 l/m 0 min 0 min 0 W/m 0,0 km/h (0 Bft) 100,00 %
07.09.2019 22:24 14,3 C 13,3 C 12,8 C 83 % 1019,8 hPa 0,0 l/m 0 min 0 min 0 W/m 0,0 km/h (0 Bft) 100,00 %
07.09.2019 22:26 14,3 C 13,3 C 13,3 C 83 % 1019,8 hPa 0,0 l/m 0 min 0 min 0 W/m 0,0 km/h (0 Bft) 100,00 %
07.09.2019 22:28 14,3 C 13,3 C 13,3 C 83 % 1019,8 hPa 0,0 l/m 0 min 0 min 0 W/m 0,0 km/h (0 Bft) 100,00 %
07.09.2019 22:30 14,3 C 13,3 C 13,3 C 83 % 1019,8 hPa 0,0 l/m 0 min 0 min 0 W/m 0,0 km/h (0 Bft) 100,00 %
07.09.2019 22:32 14,3 C 13,3 C 12,8 C 83 % 1019,8 hPa 0,0 l/m 0 min 0 min 0 W/m 0,0 km/h (0 Bft) 97,83 %
07.09.2019 22:34 14,2 C 13,3 C 12,8 C 83 % 1019,8 hPa 0,0 l/m 0 min 0 min 0 W/m 0,0 km/h (0 Bft) 100,00 %
07.09.2019 22:36 14,2 C 13,3 C 12,8 C 83 % 1019,8 hPa 0,0 l/m 0 min 0 min 0 W/m 3,2 km/h (1 Bft) 100,00 %
07.09.2019 22:38 14,2 C 13,3 C 12,8 C 83 % 1019,8 hPa 0,0 l/m 0 min 0 min 0 W/m 3,2 km/h (1 Bft) 100,00 %
07.09.2019 22:40 14,2 C 13,3 C 12,8 C 83 % 1019,8 hPa 0,0 l/m 0 min 0 min 0 W/m 0,0 km/h (0 Bft) 100,00 %
07.09.2019 22:42 14,2 C 13,3 C 12,8 C 83 % 1019,8 hPa 0,0 l/m 0 min 0 min 0 W/m 0,0 km/h (0 Bft) 97,87 %
07.09.2019 22:44 14,2 C 12,8 C 12,8 C 83 % 1019,8 hPa 0,0 l/m 0 min 0 min 0 W/m 0,0 km/h (0 Bft) 100,00 %
07.09.2019 22:46 14,2 C 12,8 C 12,8 C 83 % 1019,8 hPa 0,0 l/m 0 min 0 min 0 W/m 3,2 km/h (1 Bft) 97,87 %
07.09.2019 22:48 14,2 C 13,3 C 12,8 C 83 % 1019,8 hPa 0,0 l/m 0 min 0 min 0 W/m 0,0 km/h (0 Bft) 100,00 %
07.09.2019 22:50 14,2 C 13,3 C 12,8 C 84 % 1019,8 hPa 0,0 l/m 0 min 0 min 0 W/m 0,0 km/h (0 Bft) 100,00 %
07.09.2019 22:52 14,2 C 13,3 C 12,8 C 84 % 1019,8 hPa 0,0 l/m 0 min 0 min 0 W/m 0,0 km/h (0 Bft) 100,00 %
07.09.2019 22:54 14,2 C 13,3 C 12,8 C 84 % 1019,9 hPa 0,0 l/m 0 min 0 min 0 W/m 3,2 km/h (1 Bft) 95,74 %
07.09.2019 22:56 14,2 C 13,3 C 12,8 C 84 % 1019,9 hPa 0,0 l/m 0 min 0 min 0 W/m 0,0 km/h (0 Bft) 100,00 %
07.09.2019 22:58 14,2 C 13,3 C 12,8 C 84 % 1019,8 hPa 0,0 l/m 0 min 0 min 0 W/m 3,2 km/h (1 Bft) 100,00 %
07.09.2019 23:00 14,2 C 12,8 C 12,8 C 84 % 1019,9 hPa 0,0 l/m 0 min 0 min 0 W/m 0,0 km/h (0 Bft) 100,00 %
07.09.2019 23:02 14,2 C 12,8 C 12,8 C 84 % 1019,8 hPa 0,0 l/m 0 min 0 min 0 W/m 0,0 km/h (0 Bft) 100,00 %
07.09.2019 23:04 14,2 C 12,8 C 12,8 C 84 % 1019,9 hPa 0,0 l/m 0 min 0 min 0 W/m 0,0 km/h (0 Bft) 100,00 %
07.09.2019 23:06 14,2 C 13,3 C 12,8 C 84 % 1019,8 hPa 0,0 l/m 0 min 0 min 0 W/m 0,0 km/h (0 Bft) 100,00 %
07.09.2019 23:08 14,2 C 12,8 C 12,8 C 84 % 1019,8 hPa 0,0 l/m 0 min 0 min 0 W/m 0,0 km/h (0 Bft) 100,00 %
07.09.2019 23:10 14,2 C 12,8 C 12,8 C 84 % 1019,8 hPa 0,0 l/m 0 min 0 min 0 W/m 0,0 km/h (0 Bft) 100,00 %
07.09.2019 23:12 14,2 C 12,8 C 12,8 C 85 % 1019,8 hPa 0,0 l/m 0 min 0 min 0 W/m 0,0 km/h (0 Bft) 100,00 %
07.09.2019 23:14 14,2 C 12,8 C 12,8 C 85 % 1019,8 hPa 0,0 l/m 0 min 0 min 0 W/m 0,0 km/h (0 Bft) 100,00 %
07.09.2019 23:16 14,2 C 12,8 C 12,8 C 85 % 1019,8 hPa 0,0 l/m 0 min 0 min 0 W/m 0,0 km/h (0 Bft) 100,00 %
07.09.2019 23:18 14,2 C 12,8 C 12,8 C 85 % 1019,8 hPa 0,0 l/m 0 min 0 min 0 W/m 0,0 km/h (0 Bft) 100,00 %
07.09.2019 23:20 14,2 C 12,8 C 12,8 C 85 % 1019,8 hPa 0,0 l/m 0 min 0 min 0 W/m 0,0 km/h (0 Bft) 97,87 %
07.09.2019 23:22 14,2 C 12,8 C 12,8 C 85 % 1019,8 hPa 0,0 l/m 0 min 0 min 0 W/m 0,0 km/h (0 Bft) 100,00 %
07.09.2019 23:24 14,2 C 12,8 C 12,8 C 85 % 1019,8 hPa 0,0 l/m 0 min 0 min 0 W/m 0,0 km/h (0 Bft) 100,00 %
07.09.2019 23:26 14,2 C 12,8 C 12,8 C 85 % 1019,8 hPa 0,0 l/m 0 min 0 min 0 W/m 0,0 km/h (0 Bft) 100,00 %
07.09.2019 23:28 14,2 C 12,8 C 12,8 C 85 % 1019,8 hPa 0,0 l/m 0 min 0 min 0 W/m 0,0 km/h (0 Bft) 100,00 %
07.09.2019 23:30 14,1 C 12,8 C 12,8 C 85 % 1019,8 hPa 0,0 l/m 0 min 0 min 0 W/m 0,0 km/h (0 Bft) 97,83 %
07.09.2019 23:32 14,1 C 12,8 C 12,8 C 85 % 1019,8 hPa 0,0 l/m 0 min 0 min 0 W/m 0,0 km/h (0 Bft) 100,00 %
07.09.2019 23:34 14,1 C 12,8 C 12,8 C 85 % 1019,8 hPa 0,0 l/m 0 min 0 min 0 W/m 0,0 km/h (0 Bft) 97,87 %
07.09.2019 23:36 14,1 C 12,8 C 12,8 C 85 % 1019,8 hPa 0,0 l/m 0 min 0 min 0 W/m 0,0 km/h (0 Bft) 100,00 %
07.09.2019 23:38 14,1 C 12,8 C 12,8 C 85 % 1019,8 hPa 0,0 l/m 0 min 0 min 0 W/m 0,0 km/h (0 Bft) 100,00 %
07.09.2019 23:40 14,0 C 12,8 C 12,8 C 85 % 1019,8 hPa 0,0 l/m 0 min 0 min 0 W/m 0,0 km/h (0 Bft) 97,87 %
07.09.2019 23:42 14,0 C 12,8 C 12,8 C 85 % 1019,8 hPa 0,0 l/m 0 min 0 min 0 W/m 0,0 km/h (0 Bft) 100,00 %
07.09.2019 23:44 14,0 C 12,8 C 12,8 C 85 % 1019,8 hPa 0,0 l/m 0 min 0 min 0 W/m 0,0 km/h (0 Bft) 100,00 %
07.09.2019 23:46 14,0 C 12,8 C 12,8 C 85 % 1019,8 hPa 0,0 l/m 0 min 0 min 0 W/m 3,2 km/h (1 Bft) 97,87 %
07.09.2019 23:48 14,0 C 12,8 C 12,8 C 86 % 1019,8 hPa 0,0 l/m 0 min 0 min 0 W/m 0,0 km/h (0 Bft) 97,87 %
07.09.2019 23:50 13,9 C 12,8 C 12,8 C 85 % 1019,8 hPa 0,0 l/m 0 min 0 min 0 W/m 0,0 km/h (0 Bft) 95,74 %
07.09.2019 23:52 13,9 C 12,8 C 12,8 C 86 % 1019,9 hPa 0,0 l/m 0 min 0 min 0 W/m 0,0 km/h (0 Bft) 95,74 %
07.09.2019 23:54 13,9 C 12,8 C 12,8 C 86 % 1019,8 hPa 0,0 l/m 0 min 0 min 0 W/m 0,0 km/h (0 Bft) 91,30 %
07.09.2019 23:56 13,9 C 12,8 C 12,8 C 86 % 1019,8 hPa 0,0 l/m 0 min 0 min 0 W/m 0,0 km/h (0 Bft) 95,74 %
07.09.2019 23:58 13,9 C 12,8 C 12,8 C 86 % 1019,9 hPa 0,0 l/m 0 min 0 min 0 W/m 0,0 km/h (0 Bft) 95,74 %
_ Min-Zeit 07:44 00:58 00:48 12:58 06:10 - - - - 00:28 11:00
Minimum _ 13,1 C 11,7 C 11,7 C 65 % 1017,9 hPa - - - - 0,0 km/h (0 Bft) 89,36 %
_ Max-Zeit 15:12 15:06 12:46 08:56 22:12 00:40 12:08 00:08 14:16 04:02 00:14
Maximum _ 20,6 C 27,8 C 20,0 C 96 % 1019,9 hPa 0,2 l/m 4 min 4 min 945 W/m 25,7 km/h
SO (4 Bft)
100,00 %
Durchschnitt _ 15,9 C 15,9 C 14,5 C 81 % 1018,8 hPa #1,2 l/m #3:46 h #2:28 h 258 W/m 4,2 km/h (1 Bft) 97,52 %
© 2019 W. Hausmann